PWSweather.com
Personal Weather Stations
Station Observations
KM01CL
Kitemaniak 01, Castiglione Del LagoIT 06061

Kitemaniak 01Castiglione Del LagoIT 06061

Lat: 43.133808, Lon: 12.045753

Elevation: 997

Station Type: Ventus W831

High Low Average
Temperature 54.7°F12.6°C 30.0°F-1.1°C 38.9°F3.8°C
Dew Point 44.0°F6.7°C 24.9°F-3.9°C 32.8°F0.4°C
Winds 12.1 mph 19.5 kmh Calm Calm 2.0 mph SE3.2 kmh SE
Wind Gusts 13.7 mph22.0 kmh -- 3.0 mph4.8 kmh
Humidity 95% 48% 80%
Pressure 29.86 in1011.2 mb 29.70 in1005.8 mb -
Precipitation 0.01 in0.3 mm - -
Hour Temp Dew Point Humidity Winds Wind Gusts Pressure Precip Precip Rate Daily Precip Total
12:01 AM 35.2°F1.8°C 32.3°F0.2°C 89% 0.7 mph SW1.1 kmh SW 1.6 mph2.6 kmh 29.70 in1005.8 mb 0.00 in0.0 mm 0.00 in0.0 mm 0.00 in0.0 mm
12:03 AM 35.4°F1.9°C 32.5°F0.3°C 89% 3.1 mph NW5.0 kmh NW 3.8 mph6.1 kmh 29.71 in1006.1 mb 0.00 in0.0 mm 0.00 in0.0 mm 0.00 in0.0 mm
12:05 AM 35.2°F1.8°C 32.3°F0.2°C 89% 3.8 mph NW6.1 kmh NW 4.5 mph7.2 kmh 29.70 in1005.8 mb 0.00 in0.0 mm 0.00 in0.0 mm 0.00 in0.0 mm
12:07 AM 35.2°F1.8°C 32.3°F0.2°C 89% 0.7 mph WNW1.1 kmh WNW 1.6 mph2.6 kmh 29.70 in1005.8 mb 0.00 in0.0 mm 0.00 in0.0 mm 0.00 in0.0 mm
12:09 AM 35.1°F1.7°C 32.2°F0.1°C 89% 1.6 mph WSW2.6 kmh WSW 2.2 mph3.5 kmh 29.70 in1005.8 mb 0.00 in0.0 mm 0.00 in0.0 mm 0.00 in0.0 mm
12:11 AM 35.1°F1.7°C 32.2°F0.1°C 89% 0.7 mph WSW1.1 kmh WSW 1.6 mph2.6 kmh 29.70 in1005.8 mb 0.00 in0.0 mm 0.00 in0.0 mm 0.00 in0.0 mm
12:13 AM 35.4°F1.9°C 32.8°F0.4°C 90% 2.2 mph W3.5 kmh W 2.2 mph3.5 kmh 29.70 in1005.8 mb 0.00 in0.0 mm 0.00 in0.0 mm 0.00 in0.0 mm
12:15 AM 35.4°F1.9°C 32.8°F0.4°C 90% 1.6 mph W2.6 kmh W 2.2 mph3.5 kmh 29.70 in1005.8 mb 0.00 in0.0 mm 0.00 in0.0 mm 0.00 in0.0 mm
12:17 AM 35.4°F1.9°C 32.8°F0.4°C 90% 1.6 mph W2.6 kmh W 1.6 mph2.6 kmh 29.70 in1005.8 mb 0.00 in0.0 mm 0.00 in0.0 mm 0.00 in0.0 mm
12:19 AM 35.4°F1.9°C 32.8°F0.4°C 90% 1.6 mph SW2.6 kmh SW 2.2 mph3.5 kmh 29.71 in1006.1 mb 0.00 in0.0 mm 0.00 in0.0 mm 0.00 in0.0 mm
12:21 AM 35.4°F1.9°C 32.8°F0.4°C 90% 0.7 mph SW1.1 kmh SW 1.6 mph2.6 kmh 29.71 in1006.1 mb 0.00 in0.0 mm 0.00 in0.0 mm 0.00 in0.0 mm
12:23 AM 35.4°F1.9°C 32.8°F0.4°C 90% 2.2 mph W3.5 kmh W 3.1 mph5.0 kmh 29.71 in1006.1 mb 0.00 in0.0 mm 0.00 in0.0 mm 0.00 in0.0 mm
12:25 AM 35.4°F1.9°C 32.8°F0.4°C 90% 2.2 mph W3.5 kmh W 3.1 mph5.0 kmh 29.71 in1006.1 mb 0.00 in0.0 mm 0.00 in0.0 mm 0.00 in0.0 mm
12:27 AM 35.2°F1.8°C 32.6°F0.3°C 90% 0.7 mph W1.1 kmh W 1.6 mph2.6 kmh 29.71 in1006.1 mb 0.00 in0.0 mm 0.00 in0.0 mm 0.00 in0.0 mm
12:29 AM 35.2°F1.8°C 32.6°F0.3°C 90% Calm Calm 0.7 mph1.1 kmh 29.71 in1006.1 mb 0.00 in0.0 mm 0.00 in0.0 mm 0.00 in0.0 mm
12:31 AM 35.2°F1.8°C 32.6°F0.3°C 90% Calm Calm -- 29.71 in1006.1 mb 0.00 in0.0 mm 0.00 in0.0 mm 0.00 in0.0 mm
12:33 AM 35.2°F1.8°C 32.6°F0.3°C 90% Calm Calm 0.7 mph1.1 kmh 29.71 in1006.1 mb 0.00 in0.0 mm 0.00 in0.0 mm 0.00 in0.0 mm
12:35 AM 35.2°F1.8°C 32.6°F0.3°C 90% 1.6 mph W2.6 kmh W 2.2 mph3.5 kmh 29.71 in1006.1 mb 0.00 in0.0 mm 0.00 in0.0 mm 0.00 in0.0 mm
12:37 AM 35.2°F1.8°C 32.6°F0.3°C 90% 3.1 mph WNW5.0 kmh WNW 3.8 mph6.1 kmh 29.71 in1006.1 mb 0.00 in0.0 mm 0.00 in0.0 mm 0.00 in0.0 mm
12:39 AM 35.4°F1.9°C 32.8°F0.4°C 90% 0.7 mph W1.1 kmh W 1.6 mph2.6 kmh 29.71 in1006.1 mb 0.00 in0.0 mm 0.00 in0.0 mm 0.00 in0.0 mm
12:41 AM 35.4°F1.9°C 32.8°F0.4°C 90% 0.7 mph W1.1 kmh W 1.6 mph2.6 kmh 29.71 in1006.1 mb 0.00 in0.0 mm 0.00 in0.0 mm 0.00 in0.0 mm
12:43 AM 35.4°F1.9°C 32.8°F0.4°C 90% 2.2 mph SW3.5 kmh SW 3.1 mph5.0 kmh 29.71 in1006.1 mb 0.00 in0.0 mm 0.00 in0.0 mm 0.00 in0.0 mm
12:45 AM 35.4°F1.9°C 32.8°F0.4°C 90% 1.6 mph SW2.6 kmh SW 2.2 mph3.5 kmh 29.71 in1006.1 mb 0.00 in0.0 mm 0.00 in0.0 mm 0.00 in0.0 mm
12:47 AM 35.6°F2.0°C 33.0°F0.6°C 90% 0.7 mph SW1.1 kmh SW 1.6 mph2.6 kmh 29.71 in1006.1 mb 0.00 in0.0 mm 0.00 in0.0 mm 0.00 in0.0 mm
12:49 AM 35.6°F2.0°C 33.0°F0.6°C 90% Calm Calm -- 29.71 in1006.1 mb 0.00 in0.0 mm 0.00 in0.0 mm 0.00 in0.0 mm
12:51 AM 35.6°F2.0°C 33.0°F0.6°C 90% Calm Calm 0.7 mph1.1 kmh 29.71 in1006.1 mb 0.00 in0.0 mm 0.00 in0.0 mm 0.00 in0.0 mm
12:53 AM 35.6°F2.0°C 33.0°F0.6°C 90% Calm Calm 0.7 mph1.1 kmh 29.71 in1006.1 mb 0.00 in0.0 mm 0.00 in0.0 mm 0.00 in0.0 mm
12:55 AM 35.6°F2.0°C 33.0°F0.6°C 90% 2.2 mph SW3.5 kmh SW 3.1 mph5.0 kmh 29.71 in1006.1 mb 0.00 in0.0 mm 0.00 in0.0 mm 0.00 in0.0 mm
12:57 AM 35.6°F2.0°C 33.0°F0.6°C 90% 1.6 mph SW2.6 kmh SW 2.2 mph3.5 kmh 29.71 in1006.1 mb 0.00 in0.0 mm 0.00 in0.0 mm 0.00 in0.0 mm
12:59 AM 35.6°F2.0°C 33.0°F0.6°C 90% 1.6 mph SW2.6 kmh SW 2.2 mph3.5 kmh 29.71 in1006.1 mb 0.00 in0.0 mm 0.00 in0.0 mm 0.00 in0.0 mm
01:01 AM 35.6°F2.0°C 33.0°F0.6°C 90% 1.6 mph SW2.6 kmh SW 2.2 mph3.5 kmh 29.71 in1006.1 mb 0.00 in0.0 mm 0.00 in0.0 mm 0.00 in0.0 mm
01:03 AM 35.6°F2.0°C 33.0°F0.6°C 90% 0.7 mph SW1.1 kmh SW 1.6 mph2.6 kmh 29.71 in1006.1 mb 0.00 in0.0 mm 0.00 in0.0 mm 0.00 in0.0 mm
01:05 AM 35.6°F2.0°C 33.0°F0.6°C 90% 0.7 mph SW1.1 kmh SW 1.6 mph2.6 kmh 29.71 in1006.1 mb 0.00 in0.0 mm 0.00 in0.0 mm 0.00 in0.0 mm
01:07 AM 35.6°F2.0°C 33.0°F0.6°C 90% 1.6 mph SW2.6 kmh SW 2.2 mph3.5 kmh 29.71 in1006.1 mb 0.00 in0.0 mm 0.00 in0.0 mm 0.00 in0.0 mm
01:09 AM 35.6°F2.0°C 33.0°F0.6°C 90% 1.6 mph SW2.6 kmh SW 2.2 mph3.5 kmh 29.71 in1006.1 mb 0.00 in0.0 mm 0.00 in0.0 mm 0.00 in0.0 mm
01:11 AM 35.4°F1.9°C 32.8°F0.4°C 90% 0.7 mph SW1.1 kmh SW 1.6 mph2.6 kmh 29.71 in1006.1 mb 0.00 in0.0 mm 0.00 in0.0 mm 0.00 in0.0 mm
01:13 AM 35.4°F1.9°C 32.8°F0.4°C 90% 1.6 mph SW2.6 kmh SW 2.2 mph3.5 kmh 29.71 in1006.1 mb 0.00 in0.0 mm 0.00 in0.0 mm 0.00 in0.0 mm
01:15 AM 35.4°F1.9°C 32.8°F0.4°C 90% 1.6 mph SW2.6 kmh SW 2.2 mph3.5 kmh 29.71 in1006.1 mb 0.00 in0.0 mm 0.00 in0.0 mm 0.00 in0.0 mm
01:17 AM 35.4°F1.9°C 32.8°F0.4°C 90% 0.7 mph SW1.1 kmh SW 1.6 mph2.6 kmh 29.71 in1006.1 mb 0.00 in0.0 mm 0.00 in0.0 mm 0.00 in0.0 mm
01:20 AM 35.6°F2.0°C 33.0°F0.6°C 90% 2.2 mph SW3.5 kmh SW 2.2 mph3.5 kmh 29.72 in1006.4 mb 0.00 in0.0 mm 0.00 in0.0 mm 0.00 in0.0 mm
01:22 AM 35.6°F2.0°C 33.0°F0.6°C 90% 2.2 mph S3.5 kmh S 3.1 mph5.0 kmh 29.71 in1006.1 mb 0.00 in0.0 mm 0.00 in0.0 mm 0.00 in0.0 mm
01:24 AM 35.6°F2.0°C 33.0°F0.6°C 90% 1.6 mph S2.6 kmh S 2.2 mph3.5 kmh 29.71 in1006.1 mb 0.00 in0.0 mm 0.00 in0.0 mm 0.00 in0.0 mm
01:26 AM 35.6°F2.0°C 33.0°F0.6°C 90% 0.7 mph S1.1 kmh S 1.6 mph2.6 kmh 29.71 in1006.1 mb 0.00 in0.0 mm 0.00 in0.0 mm 0.00 in0.0 mm
01:28 AM 35.6°F2.0°C 33.0°F0.6°C 90% 0.7 mph S1.1 kmh S 1.6 mph2.6 kmh 29.71 in1006.1 mb 0.00 in0.0 mm 0.00 in0.0 mm 0.00 in0.0 mm
01:30 AM 35.6°F2.0°C 33.0°F0.6°C 90% 0.7 mph S1.1 kmh S 1.6 mph2.6 kmh 29.72 in1006.4 mb 0.00 in0.0 mm 0.00 in0.0 mm 0.00 in0.0 mm
01:32 AM 35.6°F2.0°C 33.0°F0.6°C 90% 0.7 mph S1.1 kmh S 1.6 mph2.6 kmh 29.72 in1006.4 mb 0.00 in0.0 mm 0.00 in0.0 mm 0.00 in0.0 mm
01:34 AM 35.6°F2.0°C 33.0°F0.6°C 90% 0.7 mph S1.1 kmh S 1.6 mph2.6 kmh 29.72 in1006.4 mb 0.00 in0.0 mm 0.00 in0.0 mm 0.00 in0.0 mm
01:36 AM 35.6°F2.0°C 33.0°F0.6°C 90% 3.8 mph NW6.1 kmh NW 4.5 mph7.2 kmh 29.72 in1006.4 mb 0.00 in0.0 mm 0.00 in0.0 mm 0.00 in0.0 mm
01:38 AM 35.6°F2.0°C 33.0°F0.6°C 90% 5.4 mph NW8.7 kmh NW 6.9 mph11.1 kmh 29.72 in1006.4 mb 0.00 in0.0 mm 0.00 in0.0 mm 0.00 in0.0 mm
01:40 AM 35.4°F1.9°C 32.8°F0.4°C 90% 1.6 mph NW2.6 kmh NW 2.2 mph3.5 kmh 29.72 in1006.4 mb 0.00 in0.0 mm 0.00 in0.0 mm 0.00 in0.0 mm
01:42 AM 35.4°F1.9°C 32.8°F0.4°C 90% 0.7 mph W1.1 kmh W 1.6 mph2.6 kmh 29.73 in1006.8 mb 0.00 in0.0 mm 0.00 in0.0 mm 0.00 in0.0 mm
01:44 AM 35.4°F1.9°C 32.8°F0.4°C 90% 0.7 mph W1.1 kmh W 1.6 mph2.6 kmh 29.72 in1006.4 mb 0.00 in0.0 mm 0.00 in0.0 mm 0.00 in0.0 mm
01:46 AM 35.4°F1.9°C 32.8°F0.4°C 90% Calm Calm 0.7 mph1.1 kmh 29.73 in1006.8 mb 0.00 in0.0 mm 0.00 in0.0 mm 0.00 in0.0 mm
01:48 AM 35.2°F1.8°C 32.6°F0.3°C 90% Calm Calm 0.7 mph1.1 kmh 29.73 in1006.8 mb 0.00 in0.0 mm 0.00 in0.0 mm 0.00 in0.0 mm
01:50 AM 35.2°F1.8°C 32.6°F0.3°C 90% Calm Calm 0.7 mph1.1 kmh 29.72 in1006.4 mb 0.00 in0.0 mm 0.00 in0.0 mm 0.00 in0.0 mm
01:52 AM 35.2°F1.8°C 32.6°F0.3°C 90% Calm Calm 1.6 mph2.6 kmh 29.73 in1006.8 mb 0.00 in0.0 mm 0.00 in0.0 mm 0.00 in0.0 mm
01:54 AM 35.2°F1.8°C 32.6°F0.3°C 90% 0.7 mph W1.1 kmh W 1.6 mph2.6 kmh 29.73 in1006.8 mb 0.00 in0.0 mm 0.00 in0.0 mm 0.00 in0.0 mm
01:56 AM 35.2°F1.8°C 32.6°F0.3°C 90% 0.7 mph W1.1 kmh W 1.6 mph2.6 kmh 29.73 in1006.8 mb 0.00 in0.0 mm 0.00 in0.0 mm 0.00 in0.0 mm
01:58 AM 35.2°F1.8°C 32.6°F0.3°C 90% Calm Calm -- 29.72 in1006.4 mb 0.00 in0.0 mm 0.00 in0.0 mm 0.00 in0.0 mm
02:00 AM 35.2°F1.8°C 32.6°F0.3°C 90% Calm Calm 0.7 mph1.1 kmh 29.72 in1006.4 mb 0.00 in0.0 mm 0.00 in0.0 mm 0.00 in0.0 mm
02:03 AM 35.2°F1.8°C 32.6°F0.3°C 90% Calm Calm 0.7 mph1.1 kmh 29.73 in1006.8 mb 0.00 in0.0 mm 0.00 in0.0 mm 0.00 in0.0 mm
02:05 AM 35.2°F1.8°C 32.6°F0.3°C 90% Calm Calm 0.7 mph1.1 kmh 29.72 in1006.4 mb 0.00 in0.0 mm 0.00 in0.0 mm 0.00 in0.0 mm
02:06 AM 35.2°F1.8°C 32.6°F0.3°C 90% Calm Calm 0.7 mph1.1 kmh 29.73 in1006.8 mb 0.00 in0.0 mm 0.00 in0.0 mm 0.00 in0.0 mm
02:08 AM 35.2°F1.8°C 32.6°F0.3°C 90% 2.2 mph S3.5 kmh S 3.1 mph5.0 kmh 29.73 in1006.8 mb 0.00 in0.0 mm 0.00 in0.0 mm 0.00 in0.0 mm
02:10 AM 35.2°F1.8°C 32.6°F0.3°C 90% 0.7 mph S1.1 kmh S 1.6 mph2.6 kmh 29.73 in1006.8 mb 0.00 in0.0 mm 0.00 in0.0 mm 0.00 in0.0 mm
02:12 AM 35.2°F1.8°C 32.6°F0.3°C 90% 0.7 mph S1.1 kmh S 1.6 mph2.6 kmh 29.73 in1006.8 mb 0.00 in0.0 mm 0.00 in0.0 mm 0.00 in0.0 mm
02:14 AM 35.2°F1.8°C 32.6°F0.3°C 90% 1.6 mph S2.6 kmh S 1.6 mph2.6 kmh 29.73 in1006.8 mb 0.00 in0.0 mm 0.00 in0.0 mm 0.00 in0.0 mm
02:16 AM 35.2°F1.8°C 32.6°F0.3°C 90% 2.2 mph S3.5 kmh S 3.1 mph5.0 kmh 29.73 in1006.8 mb 0.00 in0.0 mm 0.00 in0.0 mm 0.00 in0.0 mm
02:18 AM 35.4°F1.9°C 32.8°F0.4°C 90% 2.2 mph S3.5 kmh S 3.1 mph5.0 kmh 29.73 in1006.8 mb 0.00 in0.0 mm 0.00 in0.0 mm 0.00 in0.0 mm
02:20 AM 35.4°F1.9°C 32.8°F0.4°C 90% 0.7 mph S1.1 kmh S 1.6 mph2.6 kmh 29.73 in1006.8 mb 0.00 in0.0 mm 0.00 in0.0 mm 0.00 in0.0 mm
02:22 AM 35.4°F1.9°C 32.8°F0.4°C 90% 0.7 mph S1.1 kmh S 1.6 mph2.6 kmh 29.73 in1006.8 mb 0.00 in0.0 mm 0.00 in0.0 mm 0.00 in0.0 mm
02:24 AM 35.4°F1.9°C 32.8°F0.4°C 90% 0.7 mph S1.1 kmh S 1.6 mph2.6 kmh 29.73 in1006.8 mb 0.00 in0.0 mm 0.00 in0.0 mm 0.00 in0.0 mm
02:26 AM 35.4°F1.9°C 32.8°F0.4°C 90% 1.6 mph S2.6 kmh S 2.2 mph3.5 kmh 29.73 in1006.8 mb 0.00 in0.0 mm 0.00 in0.0 mm 0.00 in0.0 mm
02:28 AM 35.6°F2.0°C 33.0°F0.6°C 90% 1.6 mph S2.6 kmh S 2.2 mph3.5 kmh 29.73 in1006.8 mb 0.00 in0.0 mm 0.00 in0.0 mm 0.00 in0.0 mm
02:30 AM 35.6°F2.0°C 33.0°F0.6°C 90% 2.2 mph S3.5 kmh S 2.2 mph3.5 kmh 29.73 in1006.8 mb 0.00 in0.0 mm 0.00 in0.0 mm 0.00 in0.0 mm
02:32 AM 35.6°F2.0°C 33.0°F0.6°C 90% 0.7 mph SSE1.1 kmh SSE 1.6 mph2.6 kmh 29.74 in1007.1 mb 0.00 in0.0 mm 0.00 in0.0 mm 0.00 in0.0 mm
02:34 AM 35.6°F2.0°C 33.0°F0.6°C 90% 1.6 mph SE2.6 kmh SE 2.2 mph3.5 kmh 29.74 in1007.1 mb 0.00 in0.0 mm 0.00 in0.0 mm 0.00 in0.0 mm
02:36 AM 35.6°F2.0°C 33.0°F0.6°C 90% 1.6 mph SE2.6 kmh SE 2.2 mph3.5 kmh 29.74 in1007.1 mb 0.00 in0.0 mm 0.00 in0.0 mm 0.00 in0.0 mm
02:38 AM 35.6°F2.0°C 33.0°F0.6°C 90% 0.7 mph SE1.1 kmh SE 1.6 mph2.6 kmh 29.74 in1007.1 mb 0.00 in0.0 mm 0.00 in0.0 mm 0.00 in0.0 mm
02:40 AM 35.6°F2.0°C 33.0°F0.6°C 90% 2.2 mph ENE3.5 kmh ENE 3.1 mph5.0 kmh 29.74 in1007.1 mb 0.00 in0.0 mm 0.00 in0.0 mm 0.00 in0.0 mm
02:42 AM 35.6°F2.0°C 33.0°F0.6°C 90% 1.6 mph SE2.6 kmh SE 3.1 mph5.0 kmh 29.74 in1007.1 mb 0.00 in0.0 mm 0.00 in0.0 mm 0.00 in0.0 mm
02:44 AM 35.6°F2.0°C 33.0°F0.6°C 90% 1.6 mph SE2.6 kmh SE 2.2 mph3.5 kmh 29.74 in1007.1 mb 0.00 in0.0 mm 0.00 in0.0 mm 0.00 in0.0 mm
02:46 AM 35.6°F2.0°C 33.0°F0.6°C 90% 0.7 mph SE1.1 kmh SE 1.6 mph2.6 kmh 29.74 in1007.1 mb 0.00 in0.0 mm 0.00 in0.0 mm 0.00 in0.0 mm
02:48 AM 35.6°F2.0°C 33.0°F0.6°C 90% Calm Calm -- 29.74 in1007.1 mb 0.00 in0.0 mm 0.00 in0.0 mm 0.00 in0.0 mm
02:50 AM 35.6°F2.0°C 33.0°F0.6°C 90% 1.6 mph E2.6 kmh E 2.2 mph3.5 kmh 29.74 in1007.1 mb 0.00 in0.0 mm 0.00 in0.0 mm 0.00 in0.0 mm
02:52 AM 35.6°F2.0°C 33.0°F0.6°C 90% Calm Calm -- 29.74 in1007.1 mb 0.00 in0.0 mm 0.00 in0.0 mm 0.00 in0.0 mm
02:54 AM 35.6°F2.0°C 33.0°F0.6°C 90% 2.2 mph NE3.5 kmh NE 3.1 mph5.0 kmh 29.74 in1007.1 mb 0.00 in0.0 mm 0.00 in0.0 mm 0.00 in0.0 mm
02:56 AM 35.6°F2.0°C 33.0°F0.6°C 90% 0.7 mph NE1.1 kmh NE 1.6 mph2.6 kmh 29.74 in1007.1 mb 0.00 in0.0 mm 0.00 in0.0 mm 0.00 in0.0 mm
02:58 AM 35.6°F2.0°C 33.0°F0.6°C 90% Calm Calm -- 29.74 in1007.1 mb 0.00 in0.0 mm 0.00 in0.0 mm 0.00 in0.0 mm
03:00 AM 35.6°F2.0°C 33.0°F0.6°C 90% 3.1 mph 5.0 kmh 3.8 mph6.1 kmh 29.74 in1007.1 mb 0.00 in0.0 mm 0.00 in0.0 mm 0.00 in0.0 mm
03:02 AM 35.6°F2.0°C 33.0°F0.6°C 90% 2.2 mph NW3.5 kmh NW 3.8 mph6.1 kmh 29.74 in1007.1 mb 0.00 in0.0 mm 0.00 in0.0 mm 0.00 in0.0 mm
03:04 AM 35.4°F1.9°C 32.8°F0.4°C 90% 2.2 mph NW3.5 kmh NW 3.1 mph5.0 kmh 29.74 in1007.1 mb 0.00 in0.0 mm 0.00 in0.0 mm 0.00 in0.0 mm
03:06 AM 35.2°F1.8°C 32.6°F0.3°C 90% 0.7 mph NW1.1 kmh NW 1.6 mph2.6 kmh 29.74 in1007.1 mb 0.00 in0.0 mm 0.00 in0.0 mm 0.00 in0.0 mm
03:08 AM 35.2°F1.8°C 32.6°F0.3°C 90% Calm Calm 0.7 mph1.1 kmh 29.74 in1007.1 mb 0.00 in0.0 mm 0.00 in0.0 mm 0.00 in0.0 mm
03:10 AM 35.1°F1.7°C 32.4°F0.2°C 90% Calm Calm 0.7 mph1.1 kmh 29.74 in1007.1 mb 0.00 in0.0 mm 0.00 in0.0 mm 0.00 in0.0 mm
03:12 AM 35.1°F1.7°C 32.4°F0.2°C 90% Calm Calm -- 29.74 in1007.1 mb 0.00 in0.0 mm 0.00 in0.0 mm 0.00 in0.0 mm
03:14 AM 35.1°F1.7°C 32.4°F0.2°C 90% 1.6 mph NW2.6 kmh NW 2.2 mph3.5 kmh 29.74 in1007.1 mb 0.00 in0.0 mm 0.00 in0.0 mm 0.00 in0.0 mm
03:16 AM 35.1°F1.7°C 32.4°F0.2°C 90% 1.6 mph NW2.6 kmh NW 2.2 mph3.5 kmh 29.74 in1007.1 mb 0.00 in0.0 mm 0.00 in0.0 mm 0.00 in0.0 mm
03:18 AM 35.1°F1.7°C 32.4°F0.2°C 90% 0.7 mph NW1.1 kmh NW 1.6 mph2.6 kmh 29.73 in1006.8 mb 0.00 in0.0 mm 0.00 in0.0 mm 0.00 in0.0 mm
03:20 AM 35.1°F1.7°C 32.4°F0.2°C 90% 0.7 mph NW1.1 kmh NW 1.6 mph2.6 kmh 29.74 in1007.1 mb 0.00 in0.0 mm 0.00 in0.0 mm 0.00 in0.0 mm
03:22 AM 34.9°F1.6°C 32.3°F0.2°C 90% 1.6 mph NW2.6 kmh NW 2.2 mph3.5 kmh 29.74 in1007.1 mb 0.00 in0.0 mm 0.00 in0.0 mm 0.00 in0.0 mm
03:24 AM 34.9°F1.6°C 32.3°F0.2°C 90% 1.6 mph NW2.6 kmh NW 2.2 mph3.5 kmh 29.74 in1007.1 mb 0.00 in0.0 mm 0.00 in0.0 mm 0.00 in0.0 mm
03:26 AM 34.9°F1.6°C 32.3°F0.2°C 90% Calm Calm 0.7 mph1.1 kmh 29.74 in1007.1 mb 0.00 in0.0 mm 0.00 in0.0 mm 0.00 in0.0 mm
03:28 AM 34.9°F1.6°C 32.3°F0.2°C 90% Calm Calm 0.7 mph1.1 kmh 29.74 in1007.1 mb 0.00 in0.0 mm 0.00 in0.0 mm 0.00 in0.0 mm
03:30 AM 34.9°F1.6°C 32.3°F0.2°C 90% 0.7 mph NW1.1 kmh NW 1.6 mph2.6 kmh 29.74 in1007.1 mb 0.00 in0.0 mm 0.00 in0.0 mm 0.00 in0.0 mm
03:32 AM 34.9°F1.6°C 32.3°F0.2°C 90% 0.7 mph NW1.1 kmh NW 1.6 mph2.6 kmh 29.74 in1007.1 mb 0.00 in0.0 mm 0.00 in0.0 mm 0.00 in0.0 mm
03:34 AM 34.7°F1.5°C 32.1°F0.1°C 90% Calm Calm 0.7 mph1.1 kmh 29.74 in1007.1 mb 0.00 in0.0 mm 0.00 in0.0 mm 0.00 in0.0 mm
03:36 AM 34.9°F1.6°C 32.3°F0.2°C 90% Calm Calm 0.7 mph1.1 kmh 29.74 in1007.1 mb 0.00 in0.0 mm 0.00 in0.0 mm 0.00 in0.0 mm
03:38 AM 34.7°F1.5°C 32.1°F0.1°C 90% 1.6 mph NW2.6 kmh NW 2.2 mph3.5 kmh 29.74 in1007.1 mb 0.00 in0.0 mm 0.00 in0.0 mm 0.00 in0.0 mm
03:40 AM 34.7°F1.5°C 32.1°F0.1°C 90% 0.7 mph NW1.1 kmh NW 1.6 mph2.6 kmh 29.74 in1007.1 mb 0.00 in0.0 mm 0.00 in0.0 mm 0.00 in0.0 mm
03:42 AM 34.7°F1.5°C 32.1°F0.1°C 90% Calm Calm 1.6 mph2.6 kmh 29.74 in1007.1 mb 0.00 in0.0 mm 0.00 in0.0 mm 0.00 in0.0 mm
03:44 AM 34.5°F1.4°C 31.9°F-0.1°C 90% 0.7 mph NW1.1 kmh NW 1.6 mph2.6 kmh 29.74 in1007.1 mb 0.00 in0.0 mm 0.00 in0.0 mm 0.00 in0.0 mm
03:46 AM 34.5°F1.4°C 31.9°F-0.1°C 90% 0.7 mph NW1.1 kmh NW 0.7 mph1.1 kmh 29.74 in1007.1 mb 0.00 in0.0 mm 0.00 in0.0 mm 0.00 in0.0 mm
03:48 AM 34.5°F1.4°C 31.9°F-0.1°C 90% 0.7 mph NW1.1 kmh NW 1.6 mph2.6 kmh 29.74 in1007.1 mb 0.00 in0.0 mm 0.00 in0.0 mm 0.00 in0.0 mm
03:50 AM 34.5°F1.4°C 31.9°F-0.1°C 90% Calm Calm 0.7 mph1.1 kmh 29.74 in1007.1 mb 0.00 in0.0 mm 0.00 in0.0 mm 0.00 in0.0 mm
03:52 AM 34.5°F1.4°C 31.9°F-0.1°C 90% Calm Calm -- 29.74 in1007.1 mb 0.00 in0.0 mm 0.00 in0.0 mm 0.00 in0.0 mm
03:54 AM 34.5°F1.4°C 31.9°F-0.1°C 90% Calm Calm 0.7 mph1.1 kmh 29.74 in1007.1 mb 0.00 in0.0 mm 0.00 in0.0 mm 0.00 in0.0 mm
03:56 AM 34.5°F1.4°C 31.9°F-0.1°C 90% Calm Calm -- 29.74 in1007.1 mb 0.00 in0.0 mm 0.00 in0.0 mm 0.00 in0.0 mm
03:58 AM 34.5°F1.4°C 31.9°F-0.1°C 90% Calm Calm -- 29.74 in1007.1 mb 0.00 in0.0 mm 0.00 in0.0 mm 0.00 in0.0 mm
04:00 AM 34.5°F1.4°C 31.9°F-0.1°C 90% Calm Calm -- 29.74 in1007.1 mb 0.00 in0.0 mm 0.00 in0.0 mm 0.00 in0.0 mm
04:02 AM 34.5°F1.4°C 31.9°F-0.1°C 90% 1.6 mph S2.6 kmh S 1.6 mph2.6 kmh 29.74 in1007.1 mb 0.00 in0.0 mm 0.00 in0.0 mm 0.00 in0.0 mm
04:04 AM 34.5°F1.4°C 31.9°F-0.1°C 90% 0.7 mph S1.1 kmh S 1.6 mph2.6 kmh 29.74 in1007.1 mb 0.00 in0.0 mm 0.00 in0.0 mm 0.00 in0.0 mm
04:06 AM 34.7°F1.5°C 32.1°F0.1°C 90% 0.7 mph S1.1 kmh S 1.6 mph2.6 kmh 29.74 in1007.1 mb 0.00 in0.0 mm 0.00 in0.0 mm 0.00 in0.0 mm
04:08 AM 34.7°F1.5°C 32.1°F0.1°C 90% 1.6 mph S2.6 kmh S 2.2 mph3.5 kmh 29.74 in1007.1 mb 0.00 in0.0 mm 0.00 in0.0 mm 0.00 in0.0 mm
04:10 AM 34.7°F1.5°C 32.1°F0.1°C 90% 0.7 mph S1.1 kmh S 1.6 mph2.6 kmh 29.74 in1007.1 mb 0.00 in0.0 mm 0.00 in0.0 mm 0.00 in0.0 mm
04:12 AM 34.7°F1.5°C 32.1°F0.1°C 90% 0.7 mph S1.1 kmh S 1.6 mph2.6 kmh 29.74 in1007.1 mb 0.00 in0.0 mm 0.00 in0.0 mm 0.00 in0.0 mm
04:14 AM 34.7°F1.5°C 32.1°F0.1°C 90% Calm Calm -- 29.74 in1007.1 mb 0.00 in0.0 mm 0.00 in0.0 mm 0.00 in0.0 mm
04:16 AM 34.7°F1.5°C 32.1°F0.1°C 90% Calm Calm -- 29.74 in1007.1 mb 0.00 in0.0 mm 0.00 in0.0 mm 0.00 in0.0 mm
04:18 AM 34.7°F1.5°C 32.1°F0.1°C 90% Calm Calm 0.7 mph1.1 kmh 29.74 in1007.1 mb 0.00 in0.0 mm 0.00 in0.0 mm 0.00 in0.0 mm
04:20 AM 34.9°F1.6°C 32.3°F0.2°C 90% Calm Calm 0.7 mph1.1 kmh 29.74 in1007.1 mb 0.00 in0.0 mm 0.00 in0.0 mm 0.00 in0.0 mm
04:22 AM 34.9°F1.6°C 32.3°F0.2°C 90% Calm Calm 0.7 mph1.1 kmh 29.75 in1007.5 mb 0.00 in0.0 mm 0.00 in0.0 mm 0.00 in0.0 mm
04:24 AM 34.9°F1.6°C 32.3°F0.2°C 90% Calm Calm -- 29.74 in1007.1 mb 0.00 in0.0 mm 0.00 in0.0 mm 0.00 in0.0 mm
04:26 AM 34.9°F1.6°C 32.3°F0.2°C 90% 1.6 mph E2.6 kmh E 3.1 mph5.0 kmh 29.74 in1007.1 mb 0.00 in0.0 mm 0.00 in0.0 mm 0.00 in0.0 mm
04:28 AM 35.1°F1.7°C 32.4°F0.2°C 90% 1.6 mph E2.6 kmh E 2.2 mph3.5 kmh 29.74 in1007.1 mb 0.00 in0.0 mm 0.00 in0.0 mm 0.00 in0.0 mm
04:30 AM 35.1°F1.7°C 32.4°F0.2°C 90% 1.6 mph SE2.6 kmh SE 2.2 mph3.5 kmh 29.74 in1007.1 mb 0.00 in0.0 mm 0.00 in0.0 mm 0.00 in0.0 mm
04:32 AM 35.1°F1.7°C 32.4°F0.2°C 90% 0.7 mph SE1.1 kmh SE 0.7 mph1.1 kmh 29.74 in1007.1 mb 0.00 in0.0 mm 0.00 in0.0 mm 0.00 in0.0 mm
04:34 AM 35.1°F1.7°C 32.4°F0.2°C 90% 2.2 mph NE3.5 kmh NE 3.1 mph5.0 kmh 29.74 in1007.1 mb 0.00 in0.0 mm 0.00 in0.0 mm 0.00 in0.0 mm
04:36 AM 35.2°F1.8°C 32.6°F0.3°C 90% 3.1 mph NE5.0 kmh NE 3.8 mph6.1 kmh 29.74 in1007.1 mb 0.00 in0.0 mm 0.00 in0.0 mm 0.00 in0.0 mm
04:38 AM 35.2°F1.8°C 32.6°F0.3°C 90% Calm Calm -- 29.75 in1007.5 mb 0.00 in0.0 mm 0.00 in0.0 mm 0.00 in0.0 mm
04:40 AM 35.2°F1.8°C 32.6°F0.3°C 90% Calm Calm 0.7 mph1.1 kmh 29.75 in1007.5 mb 0.00 in0.0 mm 0.00 in0.0 mm 0.00 in0.0 mm
04:42 AM 35.2°F1.8°C 32.6°F0.3°C 90% 0.7 mph NE1.1 kmh NE 1.6 mph2.6 kmh 29.75 in1007.5 mb 0.00 in0.0 mm 0.00 in0.0 mm 0.00 in0.0 mm
04:44 AM 35.2°F1.8°C 32.6°F0.3°C 90% Calm Calm 0.7 mph1.1 kmh 29.75 in1007.5 mb 0.00 in0.0 mm 0.00 in0.0 mm 0.00 in0.0 mm
04:46 AM 35.2°F1.8°C 32.6°F0.3°C 90% Calm Calm -- 29.75 in1007.5 mb 0.00 in0.0 mm 0.00 in0.0 mm 0.00 in0.0 mm
04:48 AM 35.2°F1.8°C 32.6°F0.3°C 90% Calm Calm -- 29.75 in1007.5 mb 0.00 in0.0 mm 0.00 in0.0 mm 0.00 in0.0 mm
04:50 AM 35.2°F1.8°C 32.6°F0.3°C 90% Calm Calm -- 29.75 in1007.5 mb 0.00 in0.0 mm 0.00 in0.0 mm 0.00 in0.0 mm
04:52 AM 35.2°F1.8°C 32.6°F0.3°C 90% 0.7 mph NE1.1 kmh NE 0.7 mph1.1 kmh 29.75 in1007.5 mb 0.00 in0.0 mm 0.00 in0.0 mm 0.00 in0.0 mm
04:54 AM 35.2°F1.8°C 32.6°F0.3°C 90% Calm Calm -- 29.74 in1007.1 mb 0.00 in0.0 mm 0.00 in0.0 mm 0.00 in0.0 mm
04:56 AM 35.2°F1.8°C 32.6°F0.3°C 90% Calm Calm -- 29.75 in1007.5 mb 0.00 in0.0 mm 0.00 in0.0 mm 0.00 in0.0 mm
04:58 AM 35.2°F1.8°C 32.6°F0.3°C 90% Calm Calm 0.7 mph1.1 kmh 29.75 in1007.5 mb 0.00 in0.0 mm 0.00 in0.0 mm 0.00 in0.0 mm
05:00 AM 35.2°F1.8°C 32.6°F0.3°C 90% Calm Calm -- 29.75 in1007.5 mb 0.00 in0.0 mm 0.00 in0.0 mm 0.00 in0.0 mm
05:02 AM 35.2°F1.8°C 32.9°F0.5°C 91% Calm Calm -- 29.75 in1007.5 mb 0.00 in0.0 mm 0.00 in0.0 mm 0.00 in0.0 mm
05:04 AM 35.2°F1.8°C 32.6°F0.3°C 90% Calm Calm -- 29.75 in1007.5 mb 0.00 in0.0 mm 0.00 in0.0 mm 0.00 in0.0 mm
05:06 AM 35.2°F1.8°C 32.6°F0.3°C 90% Calm Calm -- 29.75 in1007.5 mb 0.00 in0.0 mm 0.00 in0.0 mm 0.00 in0.0 mm
05:08 AM 35.2°F1.8°C 32.6°F0.3°C 90% 1.6 mph 2.6 kmh 2.2 mph3.5 kmh 29.76 in1007.8 mb 0.00 in0.0 mm 0.00 in0.0 mm 0.00 in0.0 mm
05:10 AM 35.1°F1.7°C 32.4°F0.2°C 90% 0.7 mph 1.1 kmh 0.7 mph1.1 kmh 29.75 in1007.5 mb 0.00 in0.0 mm 0.00 in0.0 mm 0.00 in0.0 mm
05:12 AM 35.1°F1.7°C 32.4°F0.2°C 90% 0.7 mph 1.1 kmh 1.6 mph2.6 kmh 29.76 in1007.8 mb 0.00 in0.0 mm 0.00 in0.0 mm 0.00 in0.0 mm
05:14 AM 35.1°F1.7°C 32.4°F0.2°C 90% 0.7 mph 1.1 kmh 1.6 mph2.6 kmh 29.75 in1007.5 mb 0.00 in0.0 mm 0.00 in0.0 mm 0.00 in0.0 mm
05:16 AM 35.1°F1.7°C 32.4°F0.2°C 90% 1.6 mph NW2.6 kmh NW 2.2 mph3.5 kmh 29.75 in1007.5 mb 0.00 in0.0 mm 0.00 in0.0 mm 0.00 in0.0 mm
05:18 AM 34.9°F1.6°C 32.3°F0.2°C 90% 2.2 mph WNW3.5 kmh WNW 3.1 mph5.0 kmh 29.76 in1007.8 mb 0.00 in0.0 mm 0.00 in0.0 mm 0.00 in0.0 mm
05:20 AM 34.9°F1.6°C 32.3°F0.2°C 90% 2.2 mph W3.5 kmh W 3.1 mph5.0 kmh 29.76 in1007.8 mb 0.00 in0.0 mm 0.00 in0.0 mm 0.00 in0.0 mm
05:22 AM 34.7°F1.5°C 32.1°F0.1°C 90% 2.2 mph W3.5 kmh W 3.1 mph5.0 kmh 29.75 in1007.5 mb 0.00 in0.0 mm 0.00 in0.0 mm 0.00 in0.0 mm
05:24 AM 34.7°F1.5°C 32.1°F0.1°C 90% 1.6 mph W2.6 kmh W 2.2 mph3.5 kmh 29.75 in1007.5 mb 0.00 in0.0 mm 0.00 in0.0 mm 0.00 in0.0 mm
05:26 AM 34.7°F1.5°C 32.1°F0.1°C 90% 2.2 mph W3.5 kmh W 3.1 mph5.0 kmh 29.76 in1007.8 mb 0.00 in0.0 mm 0.00 in0.0 mm 0.00 in0.0 mm
05:28 AM 34.5°F1.4°C 31.9°F-0.1°C 90% 1.6 mph W2.6 kmh W 3.1 mph5.0 kmh 29.75 in1007.5 mb 0.00 in0.0 mm 0.00 in0.0 mm 0.00 in0.0 mm
05:30 AM 34.5°F1.4°C 31.9°F-0.1°C 90% 0.7 mph W1.1 kmh W 1.6 mph2.6 kmh 29.76 in1007.8 mb 0.00 in0.0 mm 0.00 in0.0 mm 0.00 in0.0 mm
05:32 AM 34.5°F1.4°C 31.9°F-0.1°C 90% Calm Calm 0.7 mph1.1 kmh 29.75 in1007.5 mb 0.00 in0.0 mm 0.00 in0.0 mm 0.00 in0.0 mm
05:34 AM 34.5°F1.4°C 31.9°F-0.1°C 90% 0.7 mph W1.1 kmh W 1.6 mph2.6 kmh 29.76 in1007.8 mb 0.00 in0.0 mm 0.00 in0.0 mm 0.00 in0.0 mm
05:36 AM 34.5°F1.4°C 31.9°F-0.1°C 90% Calm Calm -- 29.76 in1007.8 mb 0.00 in0.0 mm 0.00 in0.0 mm 0.00 in0.0 mm
05:38 AM 34.5°F1.4°C 31.9°F-0.1°C 90% Calm Calm -- 29.76 in1007.8 mb 0.00 in0.0 mm 0.00 in0.0 mm 0.00 in0.0 mm
05:40 AM 34.5°F1.4°C 31.9°F-0.1°C 90% Calm Calm 0.7 mph1.1 kmh 29.76 in1007.8 mb 0.00 in0.0 mm 0.00 in0.0 mm 0.00 in0.0 mm
05:42 AM 34.5°F1.4°C 31.9°F-0.1°C 90% 0.7 mph W1.1 kmh W 1.6 mph2.6 kmh 29.76 in1007.8 mb 0.00 in0.0 mm 0.00 in0.0 mm 0.00 in0.0 mm
05:44 AM 34.5°F1.4°C 31.9°F-0.1°C 90% 0.7 mph W1.1 kmh W 1.6 mph2.6 kmh 29.76 in1007.8 mb 0.00 in0.0 mm 0.00 in0.0 mm 0.00 in0.0 mm
05:46 AM 34.5°F1.4°C 31.9°F-0.1°C 90% Calm Calm 0.7 mph1.1 kmh 29.76 in1007.8 mb 0.00 in0.0 mm 0.00 in0.0 mm 0.00 in0.0 mm
05:48 AM 34.5°F1.4°C 31.9°F-0.1°C 90% 0.7 mph W1.1 kmh W 1.6 mph2.6 kmh 29.76 in1007.8 mb 0.00 in0.0 mm 0.00 in0.0 mm 0.00 in0.0 mm
05:50 AM 34.3°F1.3°C 31.7°F-0.2°C 90% Calm Calm 0.7 mph1.1 kmh 29.76 in1007.8 mb 0.00 in0.0 mm 0.00 in0.0 mm 0.00 in0.0 mm
05:52 AM 34.3°F1.3°C 31.7°F-0.2°C 90% 0.7 mph W1.1 kmh W 1.6 mph2.6 kmh 29.76 in1007.8 mb 0.00 in0.0 mm 0.00 in0.0 mm 0.00 in0.0 mm
05:54 AM 34.3°F1.3°C 31.7°F-0.2°C 90% 0.7 mph W1.1 kmh W 1.6 mph2.6 kmh 29.75 in1007.5 mb 0.00 in0.0 mm 0.00 in0.0 mm 0.00 in0.0 mm
05:56 AM 34.3°F1.3°C 31.7°F-0.2°C 90% Calm Calm 1.6 mph2.6 kmh 29.76 in1007.8 mb 0.00 in0.0 mm 0.00 in0.0 mm 0.00 in0.0 mm
05:58 AM 34.3°F1.3°C 31.7°F-0.2°C 90% Calm Calm 0.7 mph1.1 kmh 29.76 in1007.8 mb 0.00 in0.0 mm 0.00 in0.0 mm 0.00 in0.0 mm
06:00 AM 34.3°F1.3°C 31.7°F-0.2°C 90% Calm Calm 0.7 mph1.1 kmh 29.76 in1007.8 mb 0.00 in0.0 mm 0.00 in0.0 mm 0.00 in0.0 mm
06:02 AM 34.3°F1.3°C 31.7°F-0.2°C 90% Calm Calm -- 29.77 in1008.1 mb 0.00 in0.0 mm 0.00 in0.0 mm 0.00 in0.0 mm
06:04 AM 34.3°F1.3°C 31.7°F-0.2°C 90% Calm Calm 0.7 mph1.1 kmh 29.77 in1008.1 mb 0.00 in0.0 mm 0.00 in0.0 mm 0.00 in0.0 mm
06:06 AM 34.2°F1.2°C 31.5°F-0.3°C 90% Calm Calm 0.7 mph1.1 kmh 29.76 in1007.8 mb 0.00 in0.0 mm 0.00 in0.0 mm 0.00 in0.0 mm
06:08 AM 34.2°F1.2°C 31.5°F-0.3°C 90% Calm Calm 0.7 mph1.1 kmh 29.76 in1007.8 mb 0.00 in0.0 mm 0.00 in0.0 mm 0.00 in0.0 mm
06:10 AM 34.2°F1.2°C 31.5°F-0.3°C 90% Calm Calm -- 29.77 in1008.1 mb 0.00 in0.0 mm 0.00 in0.0 mm 0.00 in0.0 mm
06:12 AM 34.2°F1.2°C 31.5°F-0.3°C 90% Calm Calm 0.7 mph1.1 kmh 29.76 in1007.8 mb 0.00 in0.0 mm 0.00 in0.0 mm 0.00 in0.0 mm
06:14 AM 34.2°F1.2°C 31.5°F-0.3°C 90% Calm Calm 0.7 mph1.1 kmh 29.77 in1008.1 mb 0.00 in0.0 mm 0.00 in0.0 mm 0.00 in0.0 mm
06:16 AM 34.2°F1.2°C 31.5°F-0.3°C 90% 0.7 mph NW1.1 kmh NW 1.6 mph2.6 kmh 29.77 in1008.1 mb 0.00 in0.0 mm 0.00 in0.0 mm 0.00 in0.0 mm
06:19 AM 34.2°F1.2°C 31.5°F-0.3°C 90% 1.6 mph SW2.6 kmh SW 2.2 mph3.5 kmh 29.77 in1008.1 mb 0.00 in0.0 mm 0.00 in0.0 mm 0.00 in0.0 mm
06:21 AM 34.2°F1.2°C 31.5°F-0.3°C 90% Calm Calm 0.7 mph1.1 kmh 29.77 in1008.1 mb 0.00 in0.0 mm 0.00 in0.0 mm 0.00 in0.0 mm
06:23 AM 34.2°F1.2°C 31.5°F-0.3°C 90% 2.2 mph SW3.5 kmh SW 3.1 mph5.0 kmh 29.76 in1007.8 mb 0.00 in0.0 mm 0.00 in0.0 mm 0.00 in0.0 mm
06:25 AM 34.2°F1.2°C 31.5°F-0.3°C 90% 1.6 mph SW2.6 kmh SW 2.2 mph3.5 kmh 29.77 in1008.1 mb 0.00 in0.0 mm 0.00 in0.0 mm 0.00 in0.0 mm
06:27 AM 34.2°F1.2°C 31.5°F-0.3°C 90% 0.7 mph SSW1.1 kmh SSW 1.6 mph2.6 kmh 29.77 in1008.1 mb 0.00 in0.0 mm 0.00 in0.0 mm 0.00 in0.0 mm
06:29 AM 34.2°F1.2°C 31.5°F-0.3°C 90% Calm Calm -- 29.78 in1008.5 mb 0.00 in0.0 mm 0.00 in0.0 mm 0.00 in0.0 mm
06:31 AM 34.2°F1.2°C 31.5°F-0.3°C 90% Calm Calm 0.7 mph1.1 kmh 29.78 in1008.5 mb 0.00 in0.0 mm 0.00 in0.0 mm 0.00 in0.0 mm
06:33 AM 34.2°F1.2°C 31.5°F-0.3°C 90% 0.7 mph SW1.1 kmh SW 1.6 mph2.6 kmh 29.78 in1008.5 mb 0.00 in0.0 mm 0.00 in0.0 mm 0.00 in0.0 mm
06:35 AM 34.2°F1.2°C 31.5°F-0.3°C 90% 0.7 mph SW1.1 kmh SW 1.6 mph2.6 kmh 29.78 in1008.5 mb 0.00 in0.0 mm 0.00 in0.0 mm 0.00 in0.0 mm
06:37 AM 34.2°F1.2°C 31.5°F-0.3°C 90% 0.7 mph SW1.1 kmh SW 1.6 mph2.6 kmh 29.78 in1008.5 mb 0.00 in0.0 mm 0.00 in0.0 mm 0.00 in0.0 mm
06:39 AM 34.0°F1.1°C 31.4°F-0.3°C 90% 1.6 mph SW2.6 kmh SW 2.2 mph3.5 kmh 29.78 in1008.5 mb 0.00 in0.0 mm 0.00 in0.0 mm 0.00 in0.0 mm
06:41 AM 34.0°F1.1°C 31.4°F-0.3°C 90% 0.7 mph SW1.1 kmh SW 1.6 mph2.6 kmh 29.78 in1008.5 mb 0.00 in0.0 mm 0.00 in0.0 mm 0.00 in0.0 mm
06:43 AM 34.0°F1.1°C 31.4°F-0.3°C 90% 1.6 mph SW2.6 kmh SW 2.2 mph3.5 kmh 29.78 in1008.5 mb 0.00 in0.0 mm 0.00 in0.0 mm 0.00 in0.0 mm
06:45 AM 34.2°F1.2°C 31.5°F-0.3°C 90% 0.7 mph SW1.1 kmh SW 1.6 mph2.6 kmh 29.79 in1008.8 mb 0.00 in0.0 mm 0.00 in0.0 mm 0.00 in0.0 mm
06:47 AM 34.2°F1.2°C 31.5°F-0.3°C 90% Calm Calm -- 29.78 in1008.5 mb 0.00 in0.0 mm 0.00 in0.0 mm 0.00 in0.0 mm
06:49 AM 34.2°F1.2°C 31.5°F-0.3°C 90% Calm Calm -- 29.78 in1008.5 mb 0.00 in0.0 mm 0.00 in0.0 mm 0.00 in0.0 mm
06:51 AM 34.2°F1.2°C 31.5°F-0.3°C 90% Calm Calm -- 29.79 in1008.8 mb 0.00 in0.0 mm 0.00 in0.0 mm 0.00 in0.0 mm
06:53 AM 34.2°F1.2°C 31.5°F-0.3°C 90% Calm Calm -- 29.79 in1008.8 mb 0.00 in0.0 mm 0.00 in0.0 mm 0.00 in0.0 mm
06:55 AM 34.2°F1.2°C 31.5°F-0.3°C 90% 1.6 mph SW2.6 kmh SW 2.2 mph3.5 kmh 29.79 in1008.8 mb 0.00 in0.0 mm 0.00 in0.0 mm 0.00 in0.0 mm
06:57 AM 34.2°F1.2°C 31.5°F-0.3°C 90% 0.7 mph SW1.1 kmh SW 1.6 mph2.6 kmh 29.78 in1008.5 mb 0.00 in0.0 mm 0.00 in0.0 mm 0.00 in0.0 mm
06:59 AM 34.2°F1.2°C 31.5°F-0.3°C 90% 2.2 mph S3.5 kmh S 3.1 mph5.0 kmh 29.79 in1008.8 mb 0.00 in0.0 mm 0.00 in0.0 mm 0.00 in0.0 mm
07:01 AM 34.2°F1.2°C 31.5°F-0.3°C 90% 0.7 mph S1.1 kmh S 1.6 mph2.6 kmh 29.79 in1008.8 mb 0.00 in0.0 mm 0.00 in0.0 mm 0.00 in0.0 mm
07:03 AM 34.2°F1.2°C 31.5°F-0.3°C 90% 0.7 mph S1.1 kmh S 1.6 mph2.6 kmh 29.79 in1008.8 mb 0.00 in0.0 mm 0.00 in0.0 mm 0.00 in0.0 mm
07:05 AM 34.2°F1.2°C 31.5°F-0.3°C 90% 1.6 mph S2.6 kmh S 2.2 mph3.5 kmh 29.79 in1008.8 mb 0.00 in0.0 mm 0.00 in0.0 mm 0.00 in0.0 mm
07:07 AM 34.2°F1.2°C 31.5°F-0.3°C 90% 1.6 mph SSW2.6 kmh SSW 2.2 mph3.5 kmh 29.79 in1008.8 mb 0.00 in0.0 mm 0.00 in0.0 mm 0.00 in0.0 mm
07:09 AM 34.2°F1.2°C 31.5°F-0.3°C 90% 1.6 mph S2.6 kmh S 2.2 mph3.5 kmh 29.79 in1008.8 mb 0.00 in0.0 mm 0.00 in0.0 mm 0.00 in0.0 mm
07:11 AM 34.2°F1.2°C 31.5°F-0.3°C 90% 0.7 mph S1.1 kmh S 0.7 mph1.1 kmh 29.80 in1009.1 mb 0.00 in0.0 mm 0.00 in0.0 mm 0.00 in0.0 mm
07:13 AM 34.2°F1.2°C 31.5°F-0.3°C 90% Calm Calm -- 29.79 in1008.8 mb 0.00 in0.0 mm 0.00 in0.0 mm 0.00 in0.0 mm
07:15 AM 34.0°F1.1°C 31.4°F-0.3°C 90% Calm Calm 0.7 mph1.1 kmh 29.80 in1009.1 mb 0.00 in0.0 mm 0.00 in0.0 mm 0.00 in0.0 mm
07:17 AM 34.0°F1.1°C 31.4°F-0.3°C 90% Calm Calm 0.7 mph1.1 kmh 29.80 in1009.1 mb 0.00 in0.0 mm 0.00 in0.0 mm 0.00 in0.0 mm
07:19 AM 33.8°F1.0°C 31.2°F-0.4°C 90% Calm Calm -- 29.80 in1009.1 mb 0.00 in0.0 mm 0.00 in0.0 mm 0.00 in0.0 mm
07:21 AM 33.8°F1.0°C 31.2°F-0.4°C 90% 0.7 mph S1.1 kmh S 1.6 mph2.6 kmh 29.80 in1009.1 mb 0.00 in0.0 mm 0.00 in0.0 mm 0.00 in0.0 mm
07:23 AM 33.8°F1.0°C 31.2°F-0.4°C 90% 0.7 mph S1.1 kmh S 1.6 mph2.6 kmh 29.81 in1009.5 mb 0.00 in0.0 mm 0.00 in0.0 mm 0.00 in0.0 mm
07:25 AM 33.8°F1.0°C 31.2°F-0.4°C 90% 0.7 mph S1.1 kmh S 1.6 mph2.6 kmh 29.81 in1009.5 mb 0.00 in0.0 mm 0.00 in0.0 mm 0.00 in0.0 mm
07:27 AM 33.8°F1.0°C 31.2°F-0.4°C 90% Calm Calm -- 29.80 in1009.1 mb 0.00 in0.0 mm 0.00 in0.0 mm 0.00 in0.0 mm
07:29 AM 33.6°F0.9°C 31.0°F-0.6°C 90% Calm Calm -- 29.81 in1009.5 mb 0.00 in0.0 mm 0.00 in0.0 mm 0.00 in0.0 mm
07:31 AM 33.6°F0.9°C 31.0°F-0.6°C 90% Calm Calm -- 29.81 in1009.5 mb 0.00 in0.0 mm 0.00 in0.0 mm 0.00 in0.0 mm
07:33 AM 33.6°F0.9°C 31.0°F-0.6°C 90% Calm Calm 0.7 mph1.1 kmh 29.81 in1009.5 mb 0.00 in0.0 mm 0.00 in0.0 mm 0.00 in0.0 mm
07:35 AM 33.6°F0.9°C 31.0°F-0.6°C 90% 2.2 mph S3.5 kmh S 3.1 mph5.0 kmh 29.81 in1009.5 mb 0.00 in0.0 mm 0.00 in0.0 mm 0.00 in0.0 mm
07:37 AM 33.6°F0.9°C 31.0°F-0.6°C 90% 1.6 mph S2.6 kmh S 3.1 mph5.0 kmh 29.81 in1009.5 mb 0.00 in0.0 mm 0.00 in0.0 mm 0.00 in0.0 mm
07:39 AM 33.8°F1.0°C 31.2°F-0.4°C 90% 1.6 mph SW2.6 kmh SW 2.2 mph3.5 kmh 29.81 in1009.5 mb 0.00 in0.0 mm 0.00 in0.0 mm 0.00 in0.0 mm
07:41 AM 33.8°F1.0°C 31.2°F-0.4°C 90% 0.7 mph SW1.1 kmh SW 1.6 mph2.6 kmh 29.81 in1009.5 mb 0.00 in0.0 mm 0.00 in0.0 mm 0.00 in0.0 mm
07:43 AM 33.8°F1.0°C 31.2°F-0.4°C 90% 0.7 mph SW1.1 kmh SW 1.6 mph2.6 kmh 29.81 in1009.5 mb 0.00 in0.0 mm 0.00 in0.0 mm 0.00 in0.0 mm
07:45 AM 33.6°F0.9°C 31.0°F-0.6°C 90% 0.7 mph SW1.1 kmh SW 1.6 mph2.6 kmh 29.81 in1009.5 mb 0.00 in0.0 mm 0.00 in0.0 mm 0.00 in0.0 mm
07:47 AM 33.6°F0.9°C 31.0°F-0.6°C 90% 0.7 mph SW1.1 kmh SW 1.6 mph2.6 kmh 29.81 in1009.5 mb 0.00 in0.0 mm 0.00 in0.0 mm 0.00 in0.0 mm
07:49 AM 33.6°F0.9°C 31.0°F-0.6°C 90% 0.7 mph SW1.1 kmh SW 1.6 mph2.6 kmh 29.81 in1009.5 mb 0.00 in0.0 mm 0.00 in0.0 mm 0.00 in0.0 mm
07:51 AM 33.4°F0.8°C 30.8°F-0.7°C 90% Calm Calm -- 29.80 in1009.1 mb 0.00 in0.0 mm 0.00 in0.0 mm 0.00 in0.0 mm
07:53 AM 33.4°F0.8°C 30.8°F-0.7°C 90% Calm Calm -- 29.81 in1009.5 mb 0.00 in0.0 mm 0.00 in0.0 mm 0.00 in0.0 mm
07:55 AM 33.4°F0.8°C 30.8°F-0.7°C 90% 0.7 mph SW1.1 kmh SW 0.7 mph1.1 kmh 29.81 in1009.5 mb 0.00 in0.0 mm 0.00 in0.0 mm 0.00 in0.0 mm
07:57 AM 33.3°F0.7°C 30.7°F-0.7°C 90% 0.7 mph SW1.1 kmh SW 1.6 mph2.6 kmh 29.81 in1009.5 mb 0.00 in0.0 mm 0.00 in0.0 mm 0.00 in0.0 mm
07:59 AM 33.3°F0.7°C 30.7°F-0.7°C 90% 0.7 mph SW1.1 kmh SW 1.6 mph2.6 kmh 29.81 in1009.5 mb 0.00 in0.0 mm 0.00 in0.0 mm 0.00 in0.0 mm
08:01 AM 33.3°F0.7°C 30.7°F-0.7°C 90% 0.7 mph SW1.1 kmh SW 1.6 mph2.6 kmh 29.81 in1009.5 mb 0.00 in0.0 mm 0.00 in0.0 mm 0.00 in0.0 mm
08:03 AM 33.3°F0.7°C 30.7°F-0.7°C 90% 0.7 mph SW1.1 kmh SW 1.6 mph2.6 kmh 29.81 in1009.5 mb 0.00 in0.0 mm 0.00 in0.0 mm 0.00 in0.0 mm
08:05 AM 33.3°F0.7°C 30.7°F-0.7°C 90% 0.7 mph SW1.1 kmh SW 1.6 mph2.6 kmh 29.81 in1009.5 mb 0.00 in0.0 mm 0.00 in0.0 mm 0.00 in0.0 mm
08:07 AM 33.3°F0.7°C 30.7°F-0.7°C 90% Calm Calm 0.7 mph1.1 kmh 29.82 in1009.8 mb 0.00 in0.0 mm 0.00 in0.0 mm 0.00 in0.0 mm
08:09 AM 33.3°F0.7°C 30.7°F-0.7°C 90% Calm Calm -- 29.82 in1009.8 mb 0.00 in0.0 mm 0.00 in0.0 mm 0.00 in0.0 mm
08:11 AM 33.3°F0.7°C 30.7°F-0.7°C 90% Calm Calm -- 29.82 in1009.8 mb 0.00 in0.0 mm 0.00 in0.0 mm 0.00 in0.0 mm
08:13 AM 33.3°F0.7°C 30.7°F-0.7°C 90% Calm Calm -- 29.82 in1009.8 mb 0.00 in0.0 mm 0.00 in0.0 mm 0.00 in0.0 mm
08:15 AM 33.3°F0.7°C 30.7°F-0.7°C 90% Calm Calm 0.7 mph1.1 kmh 29.82 in1009.8 mb 0.00 in0.0 mm 0.00 in0.0 mm 0.00 in0.0 mm
08:17 AM 33.4°F0.8°C 30.8°F-0.7°C 90% 0.7 mph SW1.1 kmh SW 1.6 mph2.6 kmh 29.82 in1009.8 mb 0.00 in0.0 mm 0.00 in0.0 mm 0.00 in0.0 mm
08:19 AM 33.4°F0.8°C 30.8°F-0.7°C 90% 2.2 mph S3.5 kmh S 3.1 mph5.0 kmh 29.82 in1009.8 mb 0.00 in0.0 mm 0.00 in0.0 mm 0.00 in0.0 mm
08:21 AM 33.6°F0.9°C 31.0°F-0.6°C 90% 0.7 mph SW1.1 kmh SW 1.6 mph2.6 kmh 29.82 in1009.8 mb 0.00 in0.0 mm 0.00 in0.0 mm 0.00 in0.0 mm
08:23 AM 33.6°F0.9°C 31.0°F-0.6°C 90% 0.7 mph SW1.1 kmh SW 1.6 mph2.6 kmh 29.83 in1010.2 mb 0.00 in0.0 mm 0.00 in0.0 mm 0.00 in0.0 mm
08:25 AM 33.8°F1.0°C 31.2°F-0.4°C 90% 0.7 mph SW1.1 kmh SW 1.6 mph2.6 kmh 29.83 in1010.2 mb 0.00 in0.0 mm 0.00 in0.0 mm 0.00 in0.0 mm
08:27 AM 33.8°F1.0°C 31.2°F-0.4°C 90% 0.7 mph SW1.1 kmh SW 1.6 mph2.6 kmh 29.83 in1010.2 mb 0.00 in0.0 mm 0.00 in0.0 mm 0.00 in0.0 mm
08:29 AM 33.8°F1.0°C 31.2°F-0.4°C 90% Calm Calm 0.7 mph1.1 kmh 29.82 in1009.8 mb 0.00 in0.0 mm 0.00 in0.0 mm 0.00 in0.0 mm
08:31 AM 34.0°F1.1°C 31.4°F-0.3°C 90% 0.7 mph SW1.1 kmh SW 1.6 mph2.6 kmh 29.84 in1010.5 mb 0.00 in0.0 mm 0.00 in0.0 mm 0.00 in0.0 mm
08:33 AM 34.0°F1.1°C 31.4°F-0.3°C 90% 0.7 mph SW1.1 kmh SW 0.7 mph1.1 kmh 29.83 in1010.2 mb 0.00 in0.0 mm 0.00 in0.0 mm 0.00 in0.0 mm
08:35 AM 34.2°F1.2°C 31.5°F-0.3°C 90% Calm Calm 0.7 mph1.1 kmh 29.83 in1010.2 mb 0.00 in0.0 mm 0.00 in0.0 mm 0.00 in0.0 mm
08:37 AM 34.2°F1.2°C 31.5°F-0.3°C 90% Calm Calm -- 29.83 in1010.2 mb 0.00 in0.0 mm 0.00 in0.0 mm 0.00 in0.0 mm
08:39 AM 34.3°F1.3°C 31.7°F-0.2°C 90% 0.7 mph SW1.1 kmh SW 1.6 mph2.6 kmh 29.83 in1010.2 mb 0.00 in0.0 mm 0.00 in0.0 mm 0.00 in0.0 mm
08:41 AM 34.5°F1.4°C 31.9°F-0.1°C 90% 0.7 mph SW1.1 kmh SW 1.6 mph2.6 kmh 29.84 in1010.5 mb 0.00 in0.0 mm 0.00 in0.0 mm 0.00 in0.0 mm
08:43 AM 34.9°F1.6°C 32.5°F0.3°C 91% 0.7 mph SW1.1 kmh SW 1.6 mph2.6 kmh 29.83 in1010.2 mb 0.00 in0.0 mm 0.00 in0.0 mm 0.00 in0.0 mm
08:45 AM 35.1°F1.7°C 32.7°F0.4°C 91% 1.6 mph S2.6 kmh S 2.2 mph3.5 kmh 29.82 in1009.8 mb 0.00 in0.0 mm 0.00 in0.0 mm 0.00 in0.0 mm
08:47 AM 35.2°F1.8°C 32.9°F0.5°C 91% 0.7 mph S1.1 kmh S 0.7 mph1.1 kmh 29.82 in1009.8 mb 0.00 in0.0 mm 0.00 in0.0 mm 0.00 in0.0 mm
08:49 AM 35.4°F1.9°C 33.1°F0.6°C 91% 0.7 mph S1.1 kmh S 1.6 mph2.6 kmh 29.83 in1010.2 mb 0.00 in0.0 mm 0.00 in0.0 mm 0.00 in0.0 mm
08:51 AM 35.6°F2.0°C 33.2°F0.7°C 91% 0.7 mph S1.1 kmh S 1.6 mph2.6 kmh 29.83 in1010.2 mb 0.00 in0.0 mm 0.00 in0.0 mm 0.00 in0.0 mm
08:53 AM 35.8°F2.1°C 33.4°F0.8°C 91% 1.6 mph S2.6 kmh S 2.2 mph3.5 kmh 29.83 in1010.2 mb 0.00 in0.0 mm 0.00 in0.0 mm 0.00 in0.0 mm
08:55 AM 36.1°F2.3°C 33.8°F1.0°C 91% 0.7 mph E1.1 kmh E 1.6 mph2.6 kmh 29.83 in1010.2 mb 0.00 in0.0 mm 0.00 in0.0 mm 0.00 in0.0 mm
08:57 AM 36.1°F2.3°C 33.8°F1.0°C 91% 2.2 mph E3.5 kmh E 2.2 mph3.5 kmh 29.83 in1010.2 mb 0.00 in0.0 mm 0.00 in0.0 mm 0.00 in0.0 mm
08:59 AM 36.5°F2.5°C 34.1°F1.2°C 91% Calm Calm 0.7 mph1.1 kmh 29.83 in1010.2 mb 0.00 in0.0 mm 0.00 in0.0 mm 0.00 in0.0 mm
09:01 AM 36.5°F2.5°C 34.1°F1.2°C 91% Calm Calm -- 29.83 in1010.2 mb 0.00 in0.0 mm 0.00 in0.0 mm 0.00 in0.0 mm
09:03 AM 36.5°F2.5°C 34.1°F1.2°C 91% Calm Calm -- 29.83 in1010.2 mb 0.00 in0.0 mm 0.00 in0.0 mm 0.00 in0.0 mm
09:05 AM 36.3°F2.4°C 34.0°F1.1°C 91% 0.7 mph E1.1 kmh E 0.7 mph1.1 kmh 29.83 in1010.2 mb 0.00 in0.0 mm 0.00 in0.0 mm 0.00 in0.0 mm
09:07 AM 36.5°F2.5°C 34.1°F1.2°C 91% 1.6 mph E2.6 kmh E 2.2 mph3.5 kmh 29.83 in1010.2 mb 0.00 in0.0 mm 0.00 in0.0 mm 0.00 in0.0 mm
09:09 AM 36.5°F2.5°C 34.1°F1.2°C 91% 1.6 mph E2.6 kmh E 2.2 mph3.5 kmh 29.83 in1010.2 mb 0.00 in0.0 mm 0.00 in0.0 mm 0.00 in0.0 mm
09:11 AM 36.5°F2.5°C 34.1°F1.2°C 91% 0.7 mph E1.1 kmh E 1.6 mph2.6 kmh 29.83 in1010.2 mb 0.00 in0.0 mm 0.00 in0.0 mm 0.00 in0.0 mm
09:13 AM 36.5°F2.5°C 34.1°F1.2°C 91% 0.7 mph E1.1 kmh E 1.6 mph2.6 kmh 29.84 in1010.5 mb 0.00 in0.0 mm 0.00 in0.0 mm 0.00 in0.0 mm
09:15 AM 36.5°F2.5°C 34.1°F1.2°C 91% 1.6 mph E2.6 kmh E 2.2 mph3.5 kmh 29.83 in1010.2 mb 0.00 in0.0 mm 0.00 in0.0 mm 0.00 in0.0 mm
09:17 AM 36.3°F2.4°C 34.0°F1.1°C 91% 2.2 mph SE3.5 kmh SE 3.1 mph5.0 kmh 29.84 in1010.5 mb 0.00 in0.0 mm 0.00 in0.0 mm 0.00 in0.0 mm
09:19 AM 36.1°F2.3°C 33.8°F1.0°C 91% 2.2 mph SE3.5 kmh SE 3.1 mph5.0 kmh 29.84 in1010.5 mb 0.00 in0.0 mm 0.00 in0.0 mm 0.00 in0.0 mm
09:21 AM 36.1°F2.3°C 33.8°F1.0°C 91% 0.7 mph SE1.1 kmh SE 1.6 mph2.6 kmh 29.84 in1010.5 mb 0.00 in0.0 mm 0.00 in0.0 mm 0.00 in0.0 mm
09:24 AM 36.1°F2.3°C 33.8°F1.0°C 91% Calm Calm -- 29.84 in1010.5 mb 0.00 in0.0 mm 0.00 in0.0 mm 0.00 in0.0 mm
09:26 AM 36.3°F2.4°C 34.0°F1.1°C 91% 1.6 mph SE2.6 kmh SE 2.2 mph3.5 kmh 29.84 in1010.5 mb 0.00 in0.0 mm 0.00 in0.0 mm 0.00 in0.0 mm
09:28 AM 36.5°F2.5°C 34.1°F1.2°C 91% 2.2 mph S3.5 kmh S 3.1 mph5.0 kmh 29.84 in1010.5 mb 0.00 in0.0 mm 0.00 in0.0 mm 0.00 in0.0 mm
09:30 AM 36.5°F2.5°C 34.1°F1.2°C 91% 1.6 mph S2.6 kmh S 2.2 mph3.5 kmh 29.84 in1010.5 mb 0.00 in0.0 mm 0.00 in0.0 mm 0.00 in0.0 mm
09:32 AM 36.7°F2.6°C 34.3°F1.3°C 91% 1.6 mph SSE2.6 kmh SSE 2.2 mph3.5 kmh 29.84 in1010.5 mb 0.00 in0.0 mm 0.00 in0.0 mm 0.00 in0.0 mm
09:34 AM 36.9°F2.7°C 34.5°F1.4°C 91% 2.2 mph S3.5 kmh S 3.1 mph5.0 kmh 29.84 in1010.5 mb 0.00 in0.0 mm 0.00 in0.0 mm 0.00 in0.0 mm
09:36 AM 37.4°F3.0°C 35.0°F1.7°C 91% 2.2 mph S3.5 kmh S 3.1 mph5.0 kmh 29.84 in1010.5 mb 0.00 in0.0 mm 0.00 in0.0 mm 0.00 in0.0 mm
09:38 AM 37.8°F3.2°C 35.7°F2.1°C 92% 2.2 mph S3.5 kmh S 3.1 mph5.0 kmh 29.84 in1010.5 mb 0.00 in0.0 mm 0.00 in0.0 mm 0.00 in0.0 mm
09:40 AM 37.9°F3.3°C 35.8°F2.1°C 92% 1.6 mph S2.6 kmh S 2.2 mph3.5 kmh 29.84 in1010.5 mb 0.00 in0.0 mm 0.00 in0.0 mm 0.00 in0.0 mm
09:42 AM 38.1°F3.4°C 36.0°F2.2°C 92% 2.2 mph SE3.5 kmh SE 3.1 mph5.0 kmh 29.84 in1010.5 mb 0.00 in0.0 mm 0.00 in0.0 mm 0.00 in0.0 mm
09:44 AM 38.1°F3.4°C 36.0°F2.2°C 92% 2.2 mph SE3.5 kmh SE 3.1 mph5.0 kmh 29.84 in1010.5 mb 0.00 in0.0 mm 0.00 in0.0 mm 0.00 in0.0 mm
09:46 AM 37.9°F3.3°C 35.8°F2.1°C 92% 2.2 mph SE3.5 kmh SE 2.2 mph3.5 kmh 29.84 in1010.5 mb 0.00 in0.0 mm 0.00 in0.0 mm 0.00 in0.0 mm
09:48 AM 37.9°F3.3°C 35.8°F2.1°C 92% 1.6 mph SE2.6 kmh SE 2.2 mph3.5 kmh 29.85 in1010.8 mb 0.00 in0.0 mm 0.00 in0.0 mm 0.00 in0.0 mm
09:50 AM 37.9°F3.3°C 35.8°F2.1°C 92% 2.2 mph E3.5 kmh E 3.1 mph5.0 kmh 29.84 in1010.5 mb 0.00 in0.0 mm 0.00 in0.0 mm 0.00 in0.0 mm
09:52 AM 37.9°F3.3°C 35.8°F2.1°C 92% 3.1 mph SE5.0 kmh SE 3.8 mph6.1 kmh 29.85 in1010.8 mb 0.00 in0.0 mm 0.00 in0.0 mm 0.00 in0.0 mm
09:54 AM 37.9°F3.3°C 35.8°F2.1°C 92% 2.2 mph SE3.5 kmh SE 3.1 mph5.0 kmh 29.84 in1010.5 mb 0.00 in0.0 mm 0.00 in0.0 mm 0.00 in0.0 mm
09:56 AM 38.1°F3.4°C 36.0°F2.2°C 92% 4.5 mph SE7.2 kmh SE 5.4 mph8.7 kmh 29.84 in1010.5 mb 0.00 in0.0 mm 0.00 in0.0 mm 0.00 in0.0 mm
09:58 AM 38.1°F3.4°C 36.0°F2.2°C 92% 3.1 mph SE5.0 kmh SE 3.8 mph6.1 kmh 29.85 in1010.8 mb 0.00 in0.0 mm 0.00 in0.0 mm 0.00 in0.0 mm
10:00 AM 38.3°F3.5°C 36.2°F2.3°C 92% 3.1 mph SE5.0 kmh SE 4.5 mph7.2 kmh 29.84 in1010.5 mb 0.00 in0.0 mm 0.00 in0.0 mm 0.00 in0.0 mm
10:02 AM 38.5°F3.6°C 36.4°F2.4°C 92% 3.1 mph ENE5.0 kmh ENE 3.8 mph6.1 kmh 29.85 in1010.8 mb 0.00 in0.0 mm 0.00 in0.0 mm 0.00 in0.0 mm
10:04 AM 38.7°F3.7°C 36.5°F2.5°C 92% 3.1 mph S5.0 kmh S 3.8 mph6.1 kmh 29.85 in1010.8 mb 0.00 in0.0 mm 0.00 in0.0 mm 0.00 in0.0 mm
10:06 AM 39.0°F3.9°C 36.9°F2.7°C 92% 3.8 mph S6.1 kmh S 4.5 mph7.2 kmh 29.85 in1010.8 mb 0.00 in0.0 mm 0.00 in0.0 mm 0.00 in0.0 mm
10:08 AM 39.4°F4.1°C 37.3°F2.9°C 92% 0.7 mph SE1.1 kmh SE 1.6 mph2.6 kmh 29.85 in1010.8 mb 0.00 in0.0 mm 0.00 in0.0 mm 0.00 in0.0 mm
10:10 AM 40.1°F4.5°C 38.0°F3.3°C 92% 0.7 mph SE1.1 kmh SE 1.6 mph2.6 kmh 29.85 in1010.8 mb 0.00 in0.0 mm 0.00 in0.0 mm 0.00 in0.0 mm
10:12 AM 40.6°F4.8°C 38.8°F3.8°C 93% 1.6 mph E2.6 kmh E 2.2 mph3.5 kmh 29.85 in1010.8 mb 0.00 in0.0 mm 0.00 in0.0 mm 0.00 in0.0 mm
10:14 AM 41.4°F5.2°C 39.5°F4.2°C 93% 3.8 mph NE6.1 kmh NE 4.5 mph7.2 kmh 29.86 in1011.2 mb 0.00 in0.0 mm 0.00 in0.0 mm 0.00 in0.0 mm
10:16 AM 41.4°F5.2°C 39.5°F4.2°C 93% 2.2 mph NE3.5 kmh NE 3.1 mph5.0 kmh 29.86 in1011.2 mb 0.00 in0.0 mm 0.00 in0.0 mm 0.00 in0.0 mm
10:18 AM 41.5°F5.3°C 39.7°F4.3°C 93% 0.7 mph NE1.1 kmh NE 1.6 mph2.6 kmh 29.85 in1010.8 mb 0.00 in0.0 mm 0.00 in0.0 mm 0.00 in0.0 mm
10:20 AM 41.7°F5.4°C 39.9°F4.4°C 93% 0.7 mph NE1.1 kmh NE 1.6 mph2.6 kmh 29.85 in1010.8 mb 0.00 in0.0 mm 0.00 in0.0 mm 0.00 in0.0 mm
10:22 AM 42.4°F5.8°C 40.8°F4.9°C 94% 1.6 mph E2.6 kmh E 2.2 mph3.5 kmh 29.86 in1011.2 mb 0.00 in0.0 mm 0.00 in0.0 mm 0.00 in0.0 mm
10:24 AM 42.6°F5.9°C 41.0°F5.0°C 94% 2.2 mph E3.5 kmh E 3.1 mph5.0 kmh 29.85 in1010.8 mb 0.00 in0.0 mm 0.00 in0.0 mm 0.00 in0.0 mm
10:26 AM 42.4°F5.8°C 40.8°F4.9°C 94% 4.5 mph SE7.2 kmh SE 5.4 mph8.7 kmh 29.85 in1010.8 mb 0.00 in0.0 mm 0.00 in0.0 mm 0.00 in0.0 mm
10:28 AM 42.6°F5.9°C 41.0°F5.0°C 94% 5.4 mph SE8.7 kmh SE 6.0 mph9.7 kmh 29.85 in1010.8 mb 0.00 in0.0 mm 0.00 in0.0 mm 0.00 in0.0 mm
10:30 AM 42.8°F6.0°C 41.2°F5.1°C 94% 2.2 mph SSE3.5 kmh SSE 3.1 mph5.0 kmh 29.85 in1010.8 mb 0.00 in0.0 mm 0.00 in0.0 mm 0.00 in0.0 mm
10:32 AM 43.2°F6.2°C 41.6°F5.3°C 94% 2.2 mph S3.5 kmh S 3.8 mph6.1 kmh 29.85 in1010.8 mb 0.00 in0.0 mm 0.00 in0.0 mm 0.00 in0.0 mm
10:34 AM 43.7°F6.5°C 42.4°F5.8°C 95% 2.2 mph S3.5 kmh S 3.1 mph5.0 kmh 29.85 in1010.8 mb 0.00 in0.0 mm 0.00 in0.0 mm 0.00 in0.0 mm
10:36 AM 44.1°F6.7°C 42.7°F5.9°C 95% 4.5 mph S7.2 kmh S 5.4 mph8.7 kmh 29.85 in1010.8 mb 0.00 in0.0 mm 0.00 in0.0 mm 0.00 in0.0 mm
10:38 AM 44.4°F6.9°C 43.1°F6.2°C 95% 4.5 mph S7.2 kmh S 6.0 mph9.7 kmh 29.86 in1011.2 mb 0.00 in0.0 mm 0.00 in0.0 mm 0.00 in0.0 mm
10:40 AM 44.8°F7.1°C 43.4°F6.3°C 95% 3.1 mph SSE5.0 kmh SSE 4.5 mph7.2 kmh 29.85 in1010.8 mb 0.00 in0.0 mm 0.00 in0.0 mm 0.00 in0.0 mm
10:42 AM 45.0°F7.2°C 43.6°F6.4°C 95% 4.5 mph S7.2 kmh S 6.0 mph9.7 kmh 29.86 in1011.2 mb 0.00 in0.0 mm 0.00 in0.0 mm 0.00 in0.0 mm
10:44 AM 45.0°F7.2°C 43.6°F6.4°C 95% 3.1 mph SE5.0 kmh SE 3.8 mph6.1 kmh 29.85 in1010.8 mb 0.00 in0.0 mm 0.00 in0.0 mm 0.00 in0.0 mm
10:46 AM 45.0°F7.2°C 43.6°F6.4°C 95% 3.8 mph S6.1 kmh S 4.5 mph7.2 kmh 29.85 in1010.8 mb 0.00 in0.0 mm 0.00 in0.0 mm 0.00 in0.0 mm
10:48 AM 44.8°F7.1°C 43.4°F6.3°C 95% 4.5 mph SE7.2 kmh SE 5.4 mph8.7 kmh 29.86 in1011.2 mb 0.00 in0.0 mm 0.00 in0.0 mm 0.00 in0.0 mm
10:50 AM 44.4°F6.9°C 42.8°F6.0°C 94% 4.5 mph SSW7.2 kmh SSW 5.4 mph8.7 kmh 29.86 in1011.2 mb 0.01 in0.3 mm 0.35 in8.9 mm 0.01 in0.3 mm
10:52 AM 44.4°F6.9°C 42.8°F6.0°C 94% 4.5 mph S7.2 kmh S 5.4 mph8.7 kmh 29.85 in1010.8 mb 0.01 in0.3 mm 0.00 in0.0 mm 0.01 in0.3 mm
10:54 AM 44.4°F6.9°C 42.8°F6.0°C 94% 3.1 mph S5.0 kmh S 3.8 mph6.1 kmh 29.85 in1010.8 mb 0.01 in0.3 mm 0.00 in0.0 mm 0.01 in0.3 mm
10:56 AM 44.8°F7.1°C 42.9°F6.1°C 93% 3.8 mph S6.1 kmh S 4.5 mph7.2 kmh 29.86 in1011.2 mb 0.01 in0.3 mm 0.00 in0.0 mm 0.01 in0.3 mm
10:58 AM 45.5°F7.5°C 42.7°F5.9°C 90% 3.1 mph SW5.0 kmh SW 3.8 mph6.1 kmh 29.85 in1010.8 mb 0.01 in0.3 mm 0.00 in0.0 mm 0.01 in0.3 mm
11:00 AM 45.9°F7.7°C 43.1°F6.2°C 90% 3.8 mph SE6.1 kmh SE 4.5 mph7.2 kmh 29.86 in1011.2 mb 0.01 in0.3 mm 0.00 in0.0 mm 0.01 in0.3 mm
11:02 AM 46.4°F8.0°C 43.6°F6.4°C 90% 3.8 mph S6.1 kmh S 5.4 mph8.7 kmh 29.85 in1010.8 mb 0.01 in0.3 mm 0.00 in0.0 mm 0.01 in0.3 mm
11:04 AM 46.8°F8.2°C 44.0°F6.7°C 90% 3.8 mph S6.1 kmh S 3.8 mph6.1 kmh 29.86 in1011.2 mb 0.01 in0.3 mm 0.00 in0.0 mm 0.01 in0.3 mm
11:06 AM 46.9°F8.3°C 43.9°F6.6°C 89% 3.1 mph S5.0 kmh S 3.8 mph6.1 kmh 29.86 in1011.2 mb 0.01 in0.3 mm 0.00 in0.0 mm 0.01 in0.3 mm
11:08 AM 46.9°F8.3°C 43.6°F6.4°C 88% 1.6 mph S2.6 kmh S 2.2 mph3.5 kmh 29.86 in1011.2 mb 0.01 in0.3 mm 0.00 in0.0 mm 0.01 in0.3 mm
11:10 AM 46.4°F8.0°C 42.4°F5.8°C 86% Calm Calm 0.7 mph1.1 kmh 29.85 in1010.8 mb 0.01 in0.3 mm 0.00 in0.0 mm 0.01 in0.3 mm
11:12 AM 46.0°F7.8°C 41.8°F5.4°C 85% Calm Calm 0.7 mph1.1 kmh 29.86 in1011.2 mb 0.01 in0.3 mm 0.00 in0.0 mm 0.01 in0.3 mm
11:16 AM 45.5°F7.5°C 41.0°F5.0°C 84% 1.6 mph SSW2.6 kmh SSW 2.2 mph3.5 kmh 29.86 in1011.2 mb 0.01 in0.3 mm 0.00 in0.0 mm 0.01 in0.3 mm
11:18 AM 45.1°F7.3°C 42.4°F5.8°C 90% Calm Calm -- 29.86 in1011.2 mb 0.01 in0.3 mm 0.00 in0.0 mm 0.01 in0.3 mm
11:20 AM 45.0°F7.2°C 41.9°F5.5°C 89% 0.7 mph SE1.1 kmh SE 1.6 mph2.6 kmh 29.86 in1011.2 mb 0.01 in0.3 mm 0.00 in0.0 mm 0.01 in0.3 mm
11:22 AM 45.0°F7.2°C 41.9°F5.5°C 89% Calm Calm 0.7 mph1.1 kmh 29.86 in1011.2 mb 0.01 in0.3 mm 0.00 in0.0 mm 0.01 in0.3 mm
11:24 AM 45.0°F7.2°C 41.6°F5.3°C 88% 0.7 mph SE1.1 kmh SE 2.2 mph3.5 kmh 29.85 in1010.8 mb 0.01 in0.3 mm 0.00 in0.0 mm 0.01 in0.3 mm
11:26 AM 45.0°F7.2°C 41.3°F5.2°C 87% 2.2 mph S3.5 kmh S 3.1 mph5.0 kmh 29.86 in1011.2 mb 0.01 in0.3 mm 0.00 in0.0 mm 0.01 in0.3 mm
11:28 AM 45.0°F7.2°C 41.3°F5.2°C 87% 1.6 mph S2.6 kmh S 2.2 mph3.5 kmh 29.85 in1010.8 mb 0.01 in0.3 mm 0.00 in0.0 mm 0.01 in0.3 mm
11:30 AM 44.8°F7.1°C 40.9°F4.9°C 86% Calm Calm -- 29.86 in1011.2 mb 0.01 in0.3 mm 0.00 in0.0 mm 0.01 in0.3 mm
11:32 AM 44.8°F7.1°C 40.9°F4.9°C 86% 2.2 mph NE3.5 kmh NE 3.1 mph5.0 kmh 29.86 in1011.2 mb 0.01 in0.3 mm 0.00 in0.0 mm 0.01 in0.3 mm
11:34 AM 44.8°F7.1°C 40.9°F4.9°C 86% 2.2 mph NE3.5 kmh NE 3.1 mph5.0 kmh 29.86 in1011.2 mb 0.01 in0.3 mm 0.00 in0.0 mm 0.01 in0.3 mm
11:36 AM 45.0°F7.2°C 40.7°F4.8°C 85% 1.6 mph NE2.6 kmh NE 2.2 mph3.5 kmh 29.85 in1010.8 mb 0.01 in0.3 mm 0.00 in0.0 mm 0.01 in0.3 mm
11:38 AM 45.1°F7.3°C 40.9°F4.9°C 85% Calm Calm -- 29.85 in1010.8 mb 0.01 in0.3 mm 0.00 in0.0 mm 0.01 in0.3 mm
11:40 AM 45.1°F7.3°C 40.6°F4.8°C 84% Calm Calm 1.6 mph2.6 kmh 29.85 in1010.8 mb 0.01 in0.3 mm 0.00 in0.0 mm 0.01 in0.3 mm
11:42 AM 45.3°F7.4°C 40.8°F4.9°C 84% 2.2 mph S3.5 kmh S 3.1 mph5.0 kmh 29.85 in1010.8 mb 0.01 in0.3 mm 0.00 in0.0 mm 0.01 in0.3 mm
11:44 AM 45.5°F7.5°C 39.4°F4.1°C 79% 1.6 mph SE2.6 kmh SE 2.2 mph3.5 kmh 29.85 in1010.8 mb 0.01 in0.3 mm 0.00 in0.0 mm 0.01 in0.3 mm
11:46 AM 45.9°F7.7°C 39.4°F4.1°C 78% 1.6 mph E2.6 kmh E 3.1 mph5.0 kmh 29.84 in1010.5 mb 0.01 in0.3 mm 0.00 in0.0 mm 0.01 in0.3 mm
11:48 AM 45.9°F7.7°C 39.4°F4.1°C 78% 2.2 mph E3.5 kmh E 3.1 mph5.0 kmh 29.85 in1010.8 mb 0.00 in0.0 mm 0.00 in0.0 mm 0.01 in0.3 mm
11:50 AM 45.9°F7.7°C 38.7°F3.7°C 76% 3.1 mph SE5.0 kmh SE 3.8 mph6.1 kmh 29.85 in1010.8 mb 0.00 in0.0 mm 0.00 in0.0 mm 0.01 in0.3 mm
11:52 AM 45.7°F7.6°C 38.2°F3.4°C 75% 3.1 mph SE5.0 kmh SE 3.8 mph6.1 kmh 29.84 in1010.5 mb 0.00 in0.0 mm 0.00 in0.0 mm 0.01 in0.3 mm
11:54 AM 45.7°F7.6°C 37.9°F3.3°C 74% 3.1 mph SSE5.0 kmh SSE 3.8 mph6.1 kmh 29.84 in1010.5 mb 0.00 in0.0 mm 0.00 in0.0 mm 0.01 in0.3 mm
11:56 AM 45.9°F7.7°C 37.7°F3.2°C 73% 1.6 mph S2.6 kmh S 2.2 mph3.5 kmh 29.85 in1010.8 mb 0.00 in0.0 mm 0.00 in0.0 mm 0.01 in0.3 mm
11:58 AM 46.0°F7.8°C 37.9°F3.3°C 73% 2.2 mph ENE3.5 kmh ENE 3.1 mph5.0 kmh 29.84 in1010.5 mb 0.00 in0.0 mm 0.00 in0.0 mm 0.01 in0.3 mm
12:00 PM 46.0°F7.8°C 37.9°F3.3°C 73% 2.2 mph S3.5 kmh S 3.1 mph5.0 kmh 29.85 in1010.8 mb 0.00 in0.0 mm 0.00 in0.0 mm 0.01 in0.3 mm
12:02 PM 46.4°F8.0°C 38.2°F3.4°C 73% 3.8 mph SE6.1 kmh SE 4.5 mph7.2 kmh 29.85 in1010.8 mb 0.00 in0.0 mm 0.00 in0.0 mm 0.01 in0.3 mm
12:04 PM 46.4°F8.0°C 37.9°F3.3°C 72% 4.5 mph SE7.2 kmh SE 5.4 mph8.7 kmh 29.85 in1010.8 mb 0.00 in0.0 mm 0.00 in0.0 mm 0.01 in0.3 mm
12:06 PM 46.2°F7.9°C 37.3°F2.9°C 71% 4.5 mph SE7.2 kmh SE 6.0 mph9.7 kmh 29.85 in1010.8 mb 0.00 in0.0 mm 0.00 in0.0 mm 0.01 in0.3 mm
12:08 PM 46.2°F7.9°C 37.3°F2.9°C 71% 3.8 mph SE6.1 kmh SE 4.5 mph7.2 kmh 29.85 in1010.8 mb 0.00 in0.0 mm 0.00 in0.0 mm 0.01 in0.3 mm
12:10 PM 46.2°F7.9°C 37.3°F2.9°C 71% 3.1 mph E5.0 kmh E 3.8 mph6.1 kmh 29.84 in1010.5 mb 0.00 in0.0 mm 0.00 in0.0 mm 0.01 in0.3 mm
12:12 PM 46.4°F8.0°C 37.5°F3.1°C 71% 1.6 mph E2.6 kmh E 2.2 mph3.5 kmh 29.84 in1010.5 mb 0.00 in0.0 mm 0.00 in0.0 mm 0.01 in0.3 mm
12:15 PM 46.6°F8.1°C 37.3°F2.9°C 70% Calm Calm 1.6 mph2.6 kmh 29.84 in1010.5 mb 0.00 in0.0 mm 0.00 in0.0 mm 0.01 in0.3 mm
12:17 PM 46.9°F8.3°C 37.7°F3.2°C 70% Calm Calm 0.7 mph1.1 kmh 29.84 in1010.5 mb 0.00 in0.0 mm 0.00 in0.0 mm 0.01 in0.3 mm
12:19 PM 47.3°F8.5°C 38.0°F3.3°C 70% Calm Calm -- 29.84 in1010.5 mb 0.00 in0.0 mm 0.00 in0.0 mm 0.01 in0.3 mm
12:21 PM 47.5°F8.6°C 38.2°F3.4°C 70% Calm Calm -- 29.85 in1010.8 mb 0.00 in0.0 mm 0.00 in0.0 mm 0.01 in0.3 mm
12:23 PM 47.8°F8.8°C 38.2°F3.4°C 69% Calm Calm -- 29.83 in1010.2 mb 0.00 in0.0 mm 0.00 in0.0 mm 0.01 in0.3 mm
12:25 PM 47.8°F8.8°C 37.8°F3.2°C 68% Calm Calm -- 29.84 in1010.5 mb 0.00 in0.0 mm 0.00 in0.0 mm 0.01 in0.3 mm
12:27 PM 48.0°F8.9°C 37.2°F2.9°C 66% 0.7 mph E1.1 kmh E 1.6 mph2.6 kmh 29.84 in1010.5 mb 0.00 in0.0 mm 0.00 in0.0 mm 0.01 in0.3 mm
12:29 PM 48.0°F8.9°C 37.2°F2.9°C 66% 0.7 mph E1.1 kmh E 1.6 mph2.6 kmh 29.84 in1010.5 mb 0.00 in0.0 mm 0.00 in0.0 mm 0.01 in0.3 mm
12:31 PM 47.8°F8.8°C 37.0°F2.8°C 66% Calm Calm -- 29.84 in1010.5 mb 0.00 in0.0 mm 0.00 in0.0 mm 0.01 in0.3 mm
12:33 PM 47.8°F8.8°C 36.7°F2.6°C 65% Calm Calm -- 29.84 in1010.5 mb 0.00 in0.0 mm 0.00 in0.0 mm 0.01 in0.3 mm
12:35 PM 47.7°F8.7°C 36.1°F2.3°C 64% Calm Calm -- 29.84 in1010.5 mb 0.00 in0.0 mm 0.00 in0.0 mm 0.01 in0.3 mm
12:37 PM 47.5°F8.6°C 35.5°F1.9°C 63% Calm Calm -- 29.84 in1010.5 mb 0.00 in0.0 mm 0.00 in0.0 mm 0.01 in0.3 mm
12:39 PM 47.7°F8.7°C 35.7°F2.1°C 63% Calm Calm -- 29.85 in1010.8 mb 0.00 in0.0 mm 0.00 in0.0 mm 0.01 in0.3 mm
12:41 PM 47.7°F8.7°C 35.7°F2.1°C 63% Calm Calm 0.7 mph1.1 kmh 29.84 in1010.5 mb 0.00 in0.0 mm 0.00 in0.0 mm 0.01 in0.3 mm
12:43 PM 47.5°F8.6°C 35.1°F1.7°C 62% Calm Calm 0.7 mph1.1 kmh 29.84 in1010.5 mb 0.00 in0.0 mm 0.00 in0.0 mm 0.01 in0.3 mm
12:45 PM 47.3°F8.5°C 35.0°F1.7°C 62% Calm Calm -- 29.84 in1010.5 mb 0.00 in0.0 mm 0.00 in0.0 mm 0.01 in0.3 mm
12:47 PM 47.8°F8.8°C 35.5°F1.9°C 62% Calm Calm -- 29.84 in1010.5 mb 0.00 in0.0 mm 0.00 in0.0 mm 0.01 in0.3 mm
12:49 PM 48.4°F9.1°C 36.0°F2.2°C 62% Calm Calm -- 29.84 in1010.5 mb 0.00 in0.0 mm 0.00 in0.0 mm 0.01 in0.3 mm
12:51 PM 49.3°F9.6°C 36.8°F2.7°C 62% 0.7 mph E1.1 kmh E 1.6 mph2.6 kmh 29.84 in1010.5 mb 0.00 in0.0 mm 0.00 in0.0 mm 0.01 in0.3 mm
12:53 PM 50.0°F10.0°C 37.5°F3.1°C 62% Calm Calm -- 29.84 in1010.5 mb 0.00 in0.0 mm 0.00 in0.0 mm 0.01 in0.3 mm
12:55 PM 50.9°F10.5°C 38.8°F3.8°C 63% Calm Calm -- 29.83 in1010.2 mb 0.00 in0.0 mm 0.00 in0.0 mm 0.01 in0.3 mm
12:57 PM 51.1°F10.6°C 38.1°F3.4°C 61% 2.2 mph NE3.5 kmh NE 3.1 mph5.0 kmh 29.84 in1010.5 mb 0.00 in0.0 mm 0.00 in0.0 mm 0.01 in0.3 mm
12:59 PM 50.7°F10.4°C 36.9°F2.7°C 59% Calm Calm -- 29.83 in1010.2 mb 0.00 in0.0 mm 0.00 in0.0 mm 0.01 in0.3 mm
01:01 PM 50.7°F10.4°C 36.9°F2.7°C 59% 2.2 mph NE3.5 kmh NE 3.1 mph5.0 kmh 29.83 in1010.2 mb 0.00 in0.0 mm 0.00 in0.0 mm 0.01 in0.3 mm
01:03 PM 50.0°F10.0°C 35.4°F1.9°C 57% 1.6 mph NE2.6 kmh NE 2.2 mph3.5 kmh 29.83 in1010.2 mb 0.00 in0.0 mm 0.00 in0.0 mm 0.01 in0.3 mm
01:05 PM 50.0°F10.0°C 35.8°F2.1°C 58% 0.7 mph NE1.1 kmh NE 1.6 mph2.6 kmh 29.83 in1010.2 mb 0.00 in0.0 mm 0.00 in0.0 mm 0.01 in0.3 mm
01:07 PM 50.4°F10.2°C 37.0°F2.8°C 60% 1.6 mph NE2.6 kmh NE 2.2 mph3.5 kmh 29.83 in1010.2 mb 0.00 in0.0 mm 0.00 in0.0 mm 0.01 in0.3 mm
01:09 PM 50.7°F10.4°C 37.8°F3.2°C 61% 1.6 mph NE2.6 kmh NE 2.2 mph3.5 kmh 29.83 in1010.2 mb 0.00 in0.0 mm 0.00 in0.0 mm 0.01 in0.3 mm
01:11 PM 51.8°F11.0°C 39.2°F4.0°C 62% 1.6 mph NE2.6 kmh NE 2.2 mph3.5 kmh 29.83 in1010.2 mb 0.00 in0.0 mm 0.00 in0.0 mm 0.01 in0.3 mm
01:13 PM 52.3°F11.3°C 39.7°F4.3°C 62% 1.6 mph NE2.6 kmh NE 2.2 mph3.5 kmh 29.83 in1010.2 mb 0.00 in0.0 mm 0.00 in0.0 mm 0.01 in0.3 mm
01:15 PM 53.2°F11.8°C 40.6°F4.8°C 62% 0.7 mph NE1.1 kmh NE 1.6 mph2.6 kmh 29.82 in1009.8 mb 0.00 in0.0 mm 0.00 in0.0 mm 0.01 in0.3 mm
01:17 PM 53.8°F12.1°C 40.7°F4.8°C 61% 0.7 mph NE1.1 kmh NE 1.6 mph2.6 kmh 29.83 in1010.2 mb 0.00 in0.0 mm 0.00 in0.0 mm 0.01 in0.3 mm
01:19 PM 54.3°F12.4°C 41.2°F5.1°C 61% Calm Calm -- 29.83 in1010.2 mb 0.00 in0.0 mm 0.00 in0.0 mm 0.01 in0.3 mm
01:21 PM 54.7°F12.6°C 39.8°F4.3°C 57% 0.7 mph NE1.1 kmh NE 2.2 mph3.5 kmh 29.83 in1010.2 mb 0.00 in0.0 mm 0.00 in0.0 mm 0.01 in0.3 mm
01:23 PM 54.7°F12.6°C 38.8°F3.8°C 55% 0.7 mph NE1.1 kmh NE 1.6 mph2.6 kmh 29.83 in1010.2 mb 0.00 in0.0 mm 0.00 in0.0 mm 0.01 in0.3 mm
01:25 PM 54.7°F12.6°C 38.4°F3.6°C 54% Calm Calm 0.7 mph1.1 kmh 29.83 in1010.2 mb 0.00 in0.0 mm 0.00 in0.0 mm 0.01 in0.3 mm
01:27 PM 54.5°F12.5°C 37.2°F2.9°C 52% Calm Calm 0.7 mph1.1 kmh 29.82 in1009.8 mb 0.00 in0.0 mm 0.00 in0.0 mm 0.01 in0.3 mm
01:29 PM 54.3°F12.4°C 38.5°F3.6°C 55% 0.7 mph NE1.1 kmh NE 0.7 mph1.1 kmh 29.82 in1009.8 mb 0.00 in0.0 mm 0.00 in0.0 mm 0.01 in0.3 mm
01:31 PM 54.0°F12.2°C 37.2°F2.9°C 53% 0.7 mph NE1.1 kmh NE 1.6 mph2.6 kmh 29.82 in1009.8 mb 0.00 in0.0 mm 0.00 in0.0 mm 0.01 in0.3 mm
01:33 PM 53.2°F11.8°C 35.1°F1.7°C 50% 1.6 mph NE2.6 kmh NE 1.6 mph2.6 kmh 29.82 in1009.8 mb 0.00 in0.0 mm 0.00 in0.0 mm 0.01 in0.3 mm
01:35 PM 52.2°F11.2°C 33.1°F0.6°C 48% 1.6 mph NE2.6 kmh NE 2.2 mph3.5 kmh 29.82 in1009.8 mb 0.00 in0.0 mm 0.00 in0.0 mm 0.01 in0.3 mm
01:37 PM 51.6°F10.9°C 33.1°F0.6°C 49% 1.6 mph NE2.6 kmh NE 2.2 mph3.5 kmh 29.83 in1010.2 mb 0.00 in0.0 mm 0.00 in0.0 mm 0.01 in0.3 mm
01:39 PM 50.5°F10.3°C 32.6°F0.3°C 50% 2.2 mph NE3.5 kmh NE 3.1 mph5.0 kmh 29.82 in1009.8 mb 0.00 in0.0 mm 0.00 in0.0 mm 0.01 in0.3 mm
01:41 PM 50.2°F10.1°C 32.3°F0.2°C 50% 1.6 mph NE2.6 kmh NE 2.2 mph3.5 kmh 29.82 in1009.8 mb 0.00 in0.0 mm 0.00 in0.0 mm 0.01 in0.3 mm
01:43 PM 49.5°F9.7°C 32.1°F0.1°C 51% 2.2 mph NE3.5 kmh NE 3.1 mph5.0 kmh 29.82 in1009.8 mb 0.00 in0.0 mm 0.00 in0.0 mm 0.01 in0.3 mm
01:45 PM 48.7°F9.3°C 31.9°F-0.1°C 52% 1.6 mph NE2.6 kmh NE 2.2 mph3.5 kmh 29.82 in1009.8 mb 0.00 in0.0 mm 0.00 in0.0 mm 0.01 in0.3 mm
01:47 PM 48.4°F9.1°C 32.1°F0.1°C 53% 1.6 mph NE2.6 kmh NE 2.2 mph3.5 kmh 29.82 in1009.8 mb 0.00 in0.0 mm 0.00 in0.0 mm 0.01 in0.3 mm
01:49 PM 48.2°F9.0°C 32.3°F0.2°C 54% 1.6 mph NE2.6 kmh NE 2.2 mph3.5 kmh 29.82 in1009.8 mb 0.00 in0.0 mm 0.00 in0.0 mm 0.01 in0.3 mm
01:51 PM 47.8°F8.8°C 32.5°F0.3°C 55% 2.2 mph NE3.5 kmh NE 3.1 mph5.0 kmh 29.82 in1009.8 mb 0.00 in0.0 mm 0.00 in0.0 mm 0.01 in0.3 mm
01:53 PM 47.7°F8.7°C 32.3°F0.2°C 55% 2.2 mph NE3.5 kmh NE 3.1 mph5.0 kmh 29.82 in1009.8 mb 0.00 in0.0 mm 0.00 in0.0 mm 0.01 in0.3 mm
01:55 PM 47.5°F8.6°C 32.6°F0.3°C 56% 1.6 mph NE2.6 kmh NE 2.2 mph3.5 kmh 29.82 in1009.8 mb 0.00 in0.0 mm 0.00 in0.0 mm 0.01 in0.3 mm
01:57 PM 47.5°F8.6°C 33.0°F0.6°C 57% 0.7 mph NE1.1 kmh NE 1.6 mph2.6 kmh 29.82 in1009.8 mb 0.00 in0.0 mm 0.00 in0.0 mm 0.01 in0.3 mm
01:59 PM 47.5°F8.6°C 33.5°F0.8°C 58% 0.7 mph NE1.1 kmh NE 1.6 mph2.6 kmh 29.82 in1009.8 mb 0.00 in0.0 mm 0.00 in0.0 mm 0.01 in0.3 mm
02:01 PM 47.5°F8.6°C 33.5°F0.8°C 58% 0.7 mph NE1.1 kmh NE 1.6 mph2.6 kmh 29.82 in1009.8 mb 0.00 in0.0 mm 0.00 in0.0 mm 0.01 in0.3 mm
02:03 PM 47.5°F8.6°C 33.5°F0.8°C 58% 0.7 mph NE1.1 kmh NE 1.6 mph2.6 kmh 29.81 in1009.5 mb 0.00 in0.0 mm 0.00 in0.0 mm 0.01 in0.3 mm
02:05 PM 47.5°F8.6°C 33.5°F0.8°C 58% 0.7 mph NE1.1 kmh NE 1.6 mph2.6 kmh 29.81 in1009.5 mb 0.00 in0.0 mm 0.00 in0.0 mm 0.01 in0.3 mm
02:07 PM 47.7°F8.7°C 34.0°F1.1°C 59% Calm Calm 0.7 mph1.1 kmh 29.82 in1009.8 mb 0.00 in0.0 mm 0.00 in0.0 mm 0.01 in0.3 mm
02:09 PM 48.0°F8.9°C 34.8°F1.6°C 60% Calm Calm -- 29.82 in1009.8 mb 0.00 in0.0 mm 0.00 in0.0 mm 0.01 in0.3 mm
02:11 PM 48.2°F9.0°C 35.0°F1.7°C 60% 0.7 mph NE1.1 kmh NE 0.7 mph1.1 kmh 29.82 in1009.8 mb 0.00 in0.0 mm 0.00 in0.0 mm 0.01 in0.3 mm
02:13 PM 48.4°F9.1°C 35.6°F2.0°C 61% 0.7 mph NE1.1 kmh NE 1.6 mph2.6 kmh 29.82 in1009.8 mb 0.00 in0.0 mm 0.00 in0.0 mm 0.01 in0.3 mm
02:15 PM 48.6°F9.2°C 35.7°F2.1°C 61% Calm Calm 0.7 mph1.1 kmh 29.81 in1009.5 mb 0.00 in0.0 mm 0.00 in0.0 mm 0.01 in0.3 mm
02:17 PM 49.1°F9.5°C 36.2°F2.3°C 61% Calm Calm -- 29.82 in1009.8 mb 0.00 in0.0 mm 0.00 in0.0 mm 0.01 in0.3 mm
02:19 PM 49.5°F9.7°C 36.6°F2.6°C 61% Calm Calm -- 29.82 in1009.8 mb 0.00 in0.0 mm 0.00 in0.0 mm 0.01 in0.3 mm
02:21 PM 49.8°F9.9°C 36.5°F2.5°C 60% Calm Calm 1.6 mph2.6 kmh 29.81 in1009.5 mb 0.00 in0.0 mm 0.00 in0.0 mm 0.01 in0.3 mm
02:23 PM 50.2°F10.1°C 36.8°F2.7°C 60% 3.1 mph E5.0 kmh E 3.8 mph6.1 kmh 29.81 in1009.5 mb 0.00 in0.0 mm 0.00 in0.0 mm 0.01 in0.3 mm
02:25 PM 50.4°F10.2°C 36.6°F2.6°C 59% 1.6 mph E2.6 kmh E 2.2 mph3.5 kmh 29.82 in1009.8 mb 0.00 in0.0 mm 0.00 in0.0 mm 0.01 in0.3 mm
02:27 PM 50.5°F10.3°C 36.3°F2.4°C 58% 1.6 mph E2.6 kmh E 2.2 mph3.5 kmh 29.82 in1009.8 mb 0.00 in0.0 mm 0.00 in0.0 mm 0.01 in0.3 mm
02:29 PM 50.4°F10.2°C 34.4°F1.3°C 54% 3.1 mph 5.0 kmh 4.5 mph7.2 kmh 29.82 in1009.8 mb 0.00 in0.0 mm 0.00 in0.0 mm 0.01 in0.3 mm
02:31 PM 50.4°F10.2°C 34.4°F1.3°C 54% 0.7 mph 1.1 kmh 1.6 mph2.6 kmh 29.82 in1009.8 mb 0.00 in0.0 mm 0.00 in0.0 mm 0.01 in0.3 mm
02:33 PM 50.5°F10.3°C 35.0°F1.7°C 55% 0.7 mph 1.1 kmh 1.6 mph2.6 kmh 29.82 in1009.8 mb 0.00 in0.0 mm 0.00 in0.0 mm 0.01 in0.3 mm
02:35 PM 50.5°F10.3°C 35.4°F1.9°C 56% 0.7 mph 1.1 kmh 1.6 mph2.6 kmh 29.82 in1009.8 mb 0.00 in0.0 mm 0.00 in0.0 mm 0.01 in0.3 mm
02:37 PM 50.5°F10.3°C 35.9°F2.2°C 57% 0.7 mph 1.1 kmh 1.6 mph2.6 kmh 29.81 in1009.5 mb 0.00 in0.0 mm 0.00 in0.0 mm 0.01 in0.3 mm
02:39 PM 50.7°F10.4°C 35.2°F1.8°C 55% Calm Calm 0.7 mph1.1 kmh 29.81 in1009.5 mb 0.00 in0.0 mm 0.00 in0.0 mm 0.01 in0.3 mm
02:41 PM 50.9°F10.5°C 35.8°F2.1°C 56% Calm Calm -- 29.81 in1009.5 mb 0.00 in0.0 mm 0.00 in0.0 mm 0.01 in0.3 mm
02:43 PM 51.3°F10.7°C 36.1°F2.3°C 56% Calm Calm -- 29.82 in1009.8 mb 0.00 in0.0 mm 0.00 in0.0 mm 0.01 in0.3 mm
02:45 PM 51.3°F10.7°C 35.7°F2.1°C 55% Calm Calm 0.7 mph1.1 kmh 29.81 in1009.5 mb 0.00 in0.0 mm 0.00 in0.0 mm 0.01 in0.3 mm
02:47 PM 51.1°F10.6°C 34.6°F1.4°C 53% Calm Calm -- 29.81 in1009.5 mb 0.00 in0.0 mm 0.00 in0.0 mm 0.01 in0.3 mm
02:49 PM 50.9°F10.5°C 34.4°F1.3°C 53% Calm Calm -- 29.82 in1009.8 mb 0.00 in0.0 mm 0.00 in0.0 mm 0.01 in0.3 mm
02:51 PM 50.4°F10.2°C 33.4°F0.8°C 52% 0.7 mph 1.1 kmh 1.6 mph2.6 kmh 29.82 in1009.8 mb 0.00 in0.0 mm 0.00 in0.0 mm 0.01 in0.3 mm
02:53 PM 49.8°F9.9°C 32.9°F0.5°C 52% Calm Calm 0.7 mph1.1 kmh 29.81 in1009.5 mb 0.00 in0.0 mm 0.00 in0.0 mm 0.01 in0.3 mm
02:55 PM 48.9°F9.4°C 31.6°F-0.2°C 51% 0.7 mph 1.1 kmh 1.6 mph2.6 kmh 29.81 in1009.5 mb 0.00 in0.0 mm 0.00 in0.0 mm 0.01 in0.3 mm
02:57 PM 48.4°F9.1°C 31.6°F-0.2°C 52% 0.7 mph 1.1 kmh 1.6 mph2.6 kmh 29.81 in1009.5 mb 0.00 in0.0 mm 0.00 in0.0 mm 0.01 in0.3 mm
02:59 PM 47.8°F8.8°C 31.6°F-0.2°C 53% 0.7 mph 1.1 kmh 1.6 mph2.6 kmh 29.81 in1009.5 mb 0.00 in0.0 mm 0.00 in0.0 mm 0.01 in0.3 mm
03:01 PM 47.7°F8.7°C 31.4°F-0.3°C 53% 0.7 mph 1.1 kmh 0.7 mph1.1 kmh 29.81 in1009.5 mb 0.00 in0.0 mm 0.00 in0.0 mm 0.01 in0.3 mm
03:03 PM 47.5°F8.6°C 31.7°F-0.2°C 54% 0.7 mph 1.1 kmh 1.6 mph2.6 kmh 29.81 in1009.5 mb 0.00 in0.0 mm 0.00 in0.0 mm 0.01 in0.3 mm
03:05 PM 47.5°F8.6°C 32.1°F0.1°C 55% 0.7 mph 1.1 kmh 1.6 mph2.6 kmh 29.81 in1009.5 mb 0.00 in0.0 mm 0.00 in0.0 mm 0.01 in0.3 mm
03:07 PM 47.5°F8.6°C 32.1°F0.1°C 55% 1.6 mph 2.6 kmh 2.2 mph3.5 kmh 29.81 in1009.5 mb 0.00 in0.0 mm 0.00 in0.0 mm 0.01 in0.3 mm
03:09 PM 47.3°F8.5°C 31.5°F-0.3°C 54% 1.6 mph 2.6 kmh 2.2 mph3.5 kmh 29.81 in1009.5 mb 0.00 in0.0 mm 0.00 in0.0 mm 0.01 in0.3 mm
03:11 PM 47.3°F8.5°C 31.5°F-0.3°C 54% 1.6 mph 2.6 kmh 1.6 mph2.6 kmh 29.81 in1009.5 mb 0.00 in0.0 mm 0.00 in0.0 mm 0.01 in0.3 mm
03:13 PM 47.3°F8.5°C 31.5°F-0.3°C 54% 0.7 mph 1.1 kmh 1.6 mph2.6 kmh 29.80 in1009.1 mb 0.00 in0.0 mm 0.00 in0.0 mm 0.01 in0.3 mm
03:15 PM 47.1°F8.4°C 31.3°F-0.4°C 54% 0.7 mph 1.1 kmh 1.6 mph2.6 kmh 29.81 in1009.5 mb 0.00 in0.0 mm 0.00 in0.0 mm 0.01 in0.3 mm
03:17 PM 47.1°F8.4°C 31.3°F-0.4°C 54% Calm Calm 1.6 mph2.6 kmh 29.80 in1009.1 mb 0.00 in0.0 mm 0.00 in0.0 mm 0.01 in0.3 mm
03:19 PM 47.1°F8.4°C 31.8°F-0.1°C 55% 3.1 mph 5.0 kmh 3.8 mph6.1 kmh 29.80 in1009.1 mb 0.00 in0.0 mm 0.00 in0.0 mm 0.01 in0.3 mm
03:21 PM 46.8°F8.2°C 30.5°F-0.8°C 53% 6.0 mph 9.7 kmh 6.9 mph11.1 kmh 29.81 in1009.5 mb 0.00 in0.0 mm 0.00 in0.0 mm 0.01 in0.3 mm
03:23 PM 46.0°F7.8°C 29.9°F-1.2°C 53% 4.5 mph NNW7.2 kmh NNW 6.0 mph9.7 kmh 29.81 in1009.5 mb 0.00 in0.0 mm 0.00 in0.0 mm 0.01 in0.3 mm
03:25 PM 45.7°F7.6°C 29.5°F-1.4°C 53% 7.6 mph 12.2 kmh 8.3 mph13.4 kmh 29.81 in1009.5 mb 0.00 in0.0 mm 0.00 in0.0 mm 0.01 in0.3 mm
03:27 PM 45.5°F7.5°C 30.7°F-0.7°C 56% 5.4 mph NE8.7 kmh NE 6.0 mph9.7 kmh 29.81 in1009.5 mb 0.00 in0.0 mm 0.00 in0.0 mm 0.01 in0.3 mm
03:29 PM 45.5°F7.5°C 31.6°F-0.2°C 58% 3.8 mph NE6.1 kmh NE 4.5 mph7.2 kmh 29.81 in1009.5 mb 0.00 in0.0 mm 0.00 in0.0 mm 0.01 in0.3 mm
03:33 PM 45.5°F7.5°C 32.4°F0.2°C 60% 1.6 mph NE2.6 kmh NE 2.2 mph3.5 kmh 29.81 in1009.5 mb 0.00 in0.0 mm 0.00 in0.0 mm 0.01 in0.3 mm
03:35 PM 45.5°F7.5°C 32.4°F0.2°C 60% 3.8 mph NE6.1 kmh NE 4.5 mph7.2 kmh 29.81 in1009.5 mb 0.00 in0.0 mm 0.00 in0.0 mm 0.01 in0.3 mm
03:37 PM 45.5°F7.5°C 32.4°F0.2°C 60% 5.4 mph NE8.7 kmh NE 6.9 mph11.1 kmh 29.81 in1009.5 mb 0.00 in0.0 mm 0.00 in0.0 mm 0.01 in0.3 mm
03:39 PM 45.5°F7.5°C 32.4°F0.2°C 60% 6.9 mph NE11.1 kmh NE 7.6 mph12.2 kmh 29.81 in1009.5 mb 0.00 in0.0 mm 0.00 in0.0 mm 0.01 in0.3 mm
03:42 PM 45.5°F7.5°C 32.8°F0.4°C 61% 8.3 mph NE13.4 kmh NE 9.2 mph14.8 kmh 29.81 in1009.5 mb 0.00 in0.0 mm 0.00 in0.0 mm 0.01 in0.3 mm
03:44 PM 45.3°F7.4°C 33.9°F1.1°C 64% 9.2 mph NNE14.8 kmh NNE 10.7 mph17.2 kmh 29.80 in1009.1 mb 0.00 in0.0 mm 0.00 in0.0 mm 0.01 in0.3 mm
03:46 PM 45.3°F7.4°C 33.9°F1.1°C 64% 8.3 mph NE13.4 kmh NE 9.8 mph15.8 kmh 29.80 in1009.1 mb 0.00 in0.0 mm 0.00 in0.0 mm 0.01 in0.3 mm
03:48 PM 45.1°F7.3°C 34.1°F1.2°C 65% 9.2 mph NE14.8 kmh NE 9.8 mph15.8 kmh 29.80 in1009.1 mb 0.00 in0.0 mm 0.00 in0.0 mm 0.01 in0.3 mm
03:50 PM 45.0°F7.2°C 33.9°F1.1°C 65% 9.2 mph NE14.8 kmh NE 9.8 mph15.8 kmh 29.81 in1009.5 mb 0.00 in0.0 mm 0.00 in0.0 mm 0.01 in0.3 mm
03:52 PM 44.8°F7.1°C 34.1°F1.2°C 66% 7.6 mph NE12.2 kmh NE 9.2 mph14.8 kmh 29.81 in1009.5 mb 0.00 in0.0 mm 0.00 in0.0 mm 0.01 in0.3 mm
03:54 PM 44.8°F7.1°C 34.1°F1.2°C 66% 7.6 mph NE12.2 kmh NE 8.3 mph13.4 kmh 29.80 in1009.1 mb 0.00 in0.0 mm 0.00 in0.0 mm 0.01 in0.3 mm
03:56 PM 44.6°F7.0°C 34.0°F1.1°C 66% 8.3 mph NNE13.4 kmh NNE 9.2 mph14.8 kmh 29.81 in1009.5 mb 0.00 in0.0 mm 0.00 in0.0 mm 0.01 in0.3 mm
03:58 PM 44.4°F6.9°C 34.2°F1.2°C 67% 9.2 mph NE14.8 kmh NE 9.8 mph15.8 kmh 29.81 in1009.5 mb 0.00 in0.0 mm 0.00 in0.0 mm 0.01 in0.3 mm
04:00 PM 44.4°F6.9°C 34.2°F1.2°C 67% 8.3 mph NE13.4 kmh NE 9.8 mph15.8 kmh 29.81 in1009.5 mb 0.00 in0.0 mm 0.00 in0.0 mm 0.01 in0.3 mm
04:02 PM 44.4°F6.9°C 34.2°F1.2°C 67% 8.3 mph NE13.4 kmh NE 9.8 mph15.8 kmh 29.81 in1009.5 mb 0.00 in0.0 mm 0.00 in0.0 mm 0.01 in0.3 mm
04:04 PM 44.4°F6.9°C 34.2°F1.2°C 67% 8.3 mph NE13.4 kmh NE 9.8 mph15.8 kmh 29.81 in1009.5 mb 0.00 in0.0 mm 0.00 in0.0 mm 0.01 in0.3 mm
04:06 PM 44.1°F6.7°C 34.2°F1.2°C 68% 9.2 mph NNE14.8 kmh NNE 9.8 mph15.8 kmh 29.81 in1009.5 mb 0.00 in0.0 mm 0.00 in0.0 mm 0.01 in0.3 mm
04:08 PM 44.1°F6.7°C 34.2°F1.2°C 68% 8.3 mph NE13.4 kmh NE 9.2 mph14.8 kmh 29.80 in1009.1 mb 0.00 in0.0 mm 0.00 in0.0 mm 0.01 in0.3 mm
04:10 PM 44.1°F6.7°C 34.2°F1.2°C 68% 6.9 mph NE11.1 kmh NE 7.6 mph12.2 kmh 29.81 in1009.5 mb 0.00 in0.0 mm 0.00 in0.0 mm 0.01 in0.3 mm
04:12 PM 44.1°F6.7°C 34.6°F1.4°C 69% 6.9 mph NE11.1 kmh NE 7.6 mph12.2 kmh 29.81 in1009.5 mb 0.00 in0.0 mm 0.00 in0.0 mm 0.01 in0.3 mm
04:14 PM 44.1°F6.7°C 34.6°F1.4°C 69% 6.9 mph NE11.1 kmh NE 7.6 mph12.2 kmh 29.81 in1009.5 mb 0.00 in0.0 mm 0.00 in0.0 mm 0.01 in0.3 mm
04:16 PM 44.1°F6.7°C 34.9°F1.6°C 70% 7.6 mph NE12.2 kmh NE 8.3 mph13.4 kmh 29.81 in1009.5 mb 0.00 in0.0 mm 0.00 in0.0 mm 0.01 in0.3 mm
04:18 PM 43.9°F6.6°C 34.7°F1.5°C 70% 6.0 mph NE9.7 kmh NE 6.9 mph11.1 kmh 29.81 in1009.5 mb 0.00 in0.0 mm 0.00 in0.0 mm 0.01 in0.3 mm
04:20 PM 43.9°F6.6°C 34.7°F1.5°C 70% 5.4 mph NE8.7 kmh NE 6.0 mph9.7 kmh 29.81 in1009.5 mb 0.00 in0.0 mm 0.00 in0.0 mm 0.01 in0.3 mm
04:22 PM 43.9°F6.6°C 34.7°F1.5°C 70% 4.5 mph NE7.2 kmh NE 5.4 mph8.7 kmh 29.80 in1009.1 mb 0.00 in0.0 mm 0.00 in0.0 mm 0.01 in0.3 mm
04:24 PM 44.1°F6.7°C 34.9°F1.6°C 70% 6.0 mph NE9.7 kmh NE 6.9 mph11.1 kmh 29.81 in1009.5 mb 0.00 in0.0 mm 0.00 in0.0 mm 0.01 in0.3 mm
04:26 PM 43.9°F6.6°C 34.7°F1.5°C 70% 5.4 mph NE8.7 kmh NE 6.9 mph11.1 kmh 29.81 in1009.5 mb 0.00 in0.0 mm 0.00 in0.0 mm 0.01 in0.3 mm
04:28 PM 43.9°F6.6°C 34.7°F1.5°C 70% 6.0 mph NE9.7 kmh NE 7.6 mph12.2 kmh 29.81 in1009.5 mb 0.00 in0.0 mm 0.00 in0.0 mm 0.01 in0.3 mm
04:30 PM 43.9°F6.6°C 34.7°F1.5°C 70% 6.0 mph NE9.7 kmh NE 6.9 mph11.1 kmh 29.81 in1009.5 mb 0.00 in0.0 mm 0.00 in0.0 mm 0.01 in0.3 mm
04:32 PM 43.9°F6.6°C 34.7°F1.5°C 70% 5.4 mph NE8.7 kmh NE 6.9 mph11.1 kmh 29.81 in1009.5 mb 0.00 in0.0 mm 0.00 in0.0 mm 0.01 in0.3 mm
04:34 PM 43.9°F6.6°C 34.7°F1.5°C 70% 6.0 mph NE9.7 kmh NE 6.9 mph11.1 kmh 29.80 in1009.1 mb 0.00 in0.0 mm 0.00 in0.0 mm 0.01 in0.3 mm
04:36 PM 43.9°F6.6°C 34.7°F1.5°C 70% 7.6 mph NE12.2 kmh NE 8.3 mph13.4 kmh 29.81 in1009.5 mb 0.00 in0.0 mm 0.00 in0.0 mm 0.01 in0.3 mm
04:38 PM 43.9°F6.6°C 34.4°F1.3°C 69% 6.9 mph NE11.1 kmh NE 8.3 mph13.4 kmh 29.81 in1009.5 mb 0.00 in0.0 mm 0.00 in0.0 mm 0.01 in0.3 mm
04:40 PM 43.9°F6.6°C 34.4°F1.3°C 69% 6.0 mph NE9.7 kmh NE 6.9 mph11.1 kmh 29.81 in1009.5 mb 0.00 in0.0 mm 0.00 in0.0 mm 0.01 in0.3 mm
04:42 PM 43.9°F6.6°C 34.0°F1.1°C 68% 7.6 mph NE12.2 kmh NE 8.3 mph13.4 kmh 29.81 in1009.5 mb 0.00 in0.0 mm 0.00 in0.0 mm 0.01 in0.3 mm
04:44 PM 43.9°F6.6°C 34.0°F1.1°C 68% 6.0 mph NE9.7 kmh NE 6.9 mph11.1 kmh 29.81 in1009.5 mb 0.00 in0.0 mm 0.00 in0.0 mm 0.01 in0.3 mm
04:46 PM 43.7°F6.5°C 34.2°F1.2°C 69% 5.4 mph NE8.7 kmh NE 5.4 mph8.7 kmh 29.81 in1009.5 mb 0.00 in0.0 mm 0.00 in0.0 mm 0.01 in0.3 mm
04:48 PM 43.7°F6.5°C 34.2°F1.2°C 69% 7.6 mph NE12.2 kmh NE 9.2 mph14.8 kmh 29.81 in1009.5 mb 0.00 in0.0 mm 0.00 in0.0 mm 0.01 in0.3 mm
04:50 PM 43.7°F6.5°C 34.2°F1.2°C 69% 5.4 mph NE8.7 kmh NE 6.9 mph11.1 kmh 29.80 in1009.1 mb 0.00 in0.0 mm 0.00 in0.0 mm 0.01 in0.3 mm
04:52 PM 43.5°F6.4°C 34.0°F1.1°C 69% 6.0 mph NE9.7 kmh NE 7.6 mph12.2 kmh 29.81 in1009.5 mb 0.00 in0.0 mm 0.00 in0.0 mm 0.01 in0.3 mm
04:54 PM 43.5°F6.4°C 34.4°F1.3°C 70% 11.4 mph NE18.3 kmh NE 12.1 mph19.5 kmh 29.81 in1009.5 mb 0.00 in0.0 mm 0.00 in0.0 mm 0.01 in0.3 mm
04:56 PM 43.3°F6.3°C 34.2°F1.2°C 70% 10.7 mph NE17.2 kmh NE 11.4 mph18.3 kmh 29.81 in1009.5 mb 0.00 in0.0 mm 0.00 in0.0 mm 0.01 in0.3 mm
04:58 PM 43.3°F6.3°C 34.2°F1.2°C 70% 10.7 mph NE17.2 kmh NE 12.1 mph19.5 kmh 29.81 in1009.5 mb 0.00 in0.0 mm 0.00 in0.0 mm 0.01 in0.3 mm
05:00 PM 43.2°F6.2°C 34.1°F1.2°C 70% 11.4 mph NE18.3 kmh NE 13.0 mph20.9 kmh 29.81 in1009.5 mb 0.00 in0.0 mm 0.00 in0.0 mm 0.01 in0.3 mm
05:02 PM 43.0°F6.1°C 33.9°F1.1°C 70% 9.8 mph NE15.8 kmh NE 10.7 mph17.2 kmh 29.81 in1009.5 mb 0.00 in0.0 mm 0.00 in0.0 mm 0.01 in0.3 mm
05:04 PM 43.0°F6.1°C 33.9°F1.1°C 70% 11.4 mph NE18.3 kmh NE 12.1 mph19.5 kmh 29.81 in1009.5 mb 0.00 in0.0 mm 0.00 in0.0 mm 0.01 in0.3 mm
05:06 PM 42.8°F6.0°C 33.7°F0.9°C 70% 11.4 mph NE18.3 kmh NE 12.1 mph19.5 kmh 29.82 in1009.8 mb 0.00 in0.0 mm 0.00 in0.0 mm 0.01 in0.3 mm
05:08 PM 42.8°F6.0°C 33.7°F0.9°C 70% 10.7 mph NE17.2 kmh NE 12.1 mph19.5 kmh 29.80 in1009.1 mb 0.00 in0.0 mm 0.00 in0.0 mm 0.01 in0.3 mm
05:10 PM 42.6°F5.9°C 33.5°F0.8°C 70% 10.7 mph NE17.2 kmh NE 11.4 mph18.3 kmh 29.81 in1009.5 mb 0.00 in0.0 mm 0.00 in0.0 mm 0.01 in0.3 mm
05:12 PM 42.6°F5.9°C 33.5°F0.8°C 70% 10.7 mph NE17.2 kmh NE 12.1 mph19.5 kmh 29.81 in1009.5 mb 0.00 in0.0 mm 0.00 in0.0 mm 0.01 in0.3 mm
05:14 PM 42.4°F5.8°C 33.4°F0.8°C 70% 11.4 mph NE18.3 kmh NE 13.0 mph20.9 kmh 29.81 in1009.5 mb 0.00 in0.0 mm 0.00 in0.0 mm 0.01 in0.3 mm
05:16 PM 42.4°F5.8°C 33.7°F0.9°C 71% 9.8 mph NE15.8 kmh NE 11.4 mph18.3 kmh 29.81 in1009.5 mb 0.00 in0.0 mm 0.00 in0.0 mm 0.01 in0.3 mm
05:18 PM 42.3°F5.7°C 33.5°F0.8°C 71% 10.7 mph NE17.2 kmh NE 12.1 mph19.5 kmh 29.81 in1009.5 mb 0.00 in0.0 mm 0.00 in0.0 mm 0.01 in0.3 mm
05:20 PM 42.3°F5.7°C 33.5°F0.8°C 71% 10.7 mph NE17.2 kmh NE 12.1 mph19.5 kmh 29.81 in1009.5 mb 0.00 in0.0 mm 0.00 in0.0 mm 0.01 in0.3 mm
05:23 PM 42.3°F5.7°C 33.5°F0.8°C 71% 10.7 mph NE17.2 kmh NE 11.4 mph18.3 kmh 29.81 in1009.5 mb 0.00 in0.0 mm 0.00 in0.0 mm 0.01 in0.3 mm
05:24 PM 42.3°F5.7°C 33.9°F1.1°C 72% 10.7 mph NE17.2 kmh NE 11.4 mph18.3 kmh 29.81 in1009.5 mb 0.00 in0.0 mm 0.00 in0.0 mm 0.01 in0.3 mm
05:26 PM 42.1°F5.6°C 33.7°F0.9°C 72% 9.8 mph NE15.8 kmh NE 10.7 mph17.2 kmh 29.81 in1009.5 mb 0.00 in0.0 mm 0.00 in0.0 mm 0.01 in0.3 mm
05:28 PM 42.1°F5.6°C 33.7°F0.9°C 72% 10.7 mph NE17.2 kmh NE 12.1 mph19.5 kmh 29.81 in1009.5 mb 0.00 in0.0 mm 0.00 in0.0 mm 0.01 in0.3 mm
05:30 PM 41.9°F5.5°C 33.5°F0.8°C 72% 11.4 mph NE18.3 kmh NE 12.1 mph19.5 kmh 29.81 in1009.5 mb 0.00 in0.0 mm 0.00 in0.0 mm 0.01 in0.3 mm
05:32 PM 41.9°F5.5°C 33.5°F0.8°C 72% 12.1 mph NE19.5 kmh NE 13.7 mph22.0 kmh 29.80 in1009.1 mb 0.00 in0.0 mm 0.00 in0.0 mm 0.01 in0.3 mm
05:34 PM 41.9°F5.5°C 33.5°F0.8°C 72% 11.4 mph NE18.3 kmh NE 13.0 mph20.9 kmh 29.81 in1009.5 mb 0.00 in0.0 mm 0.00 in0.0 mm 0.01 in0.3 mm
05:36 PM 41.9°F5.5°C 33.5°F0.8°C 72% 11.4 mph NE18.3 kmh NE 12.1 mph19.5 kmh 29.81 in1009.5 mb 0.00 in0.0 mm 0.00 in0.0 mm 0.01 in0.3 mm
05:38 PM 41.9°F5.5°C 33.5°F0.8°C 72% 10.7 mph NE17.2 kmh NE 12.1 mph19.5 kmh 29.80 in1009.1 mb 0.00 in0.0 mm 0.00 in0.0 mm 0.01 in0.3 mm
05:40 PM 41.9°F5.5°C 33.5°F0.8°C 72% 11.4 mph NE18.3 kmh NE 12.1 mph19.5 kmh 29.81 in1009.5 mb 0.00 in0.0 mm 0.00 in0.0 mm 0.01 in0.3 mm
05:42 PM 41.9°F5.5°C 33.5°F0.8°C 72% 9.8 mph NNE15.8 kmh NNE 11.4 mph18.3 kmh 29.81 in1009.5 mb 0.00 in0.0 mm 0.00 in0.0 mm 0.01 in0.3 mm
05:44 PM 41.9°F5.5°C 33.5°F0.8°C 72% 9.2 mph NE14.8 kmh NE 9.8 mph15.8 kmh 29.81 in1009.5 mb 0.00 in0.0 mm 0.00 in0.0 mm 0.01 in0.3 mm
05:46 PM 41.9°F5.5°C 33.5°F0.8°C 72% 10.7 mph NE17.2 kmh NE 11.4 mph18.3 kmh 29.81 in1009.5 mb 0.00 in0.0 mm 0.00 in0.0 mm 0.01 in0.3 mm
05:48 PM 41.7°F5.4°C 33.0°F0.6°C 71% 10.7 mph NNE17.2 kmh NNE 11.4 mph18.3 kmh 29.81 in1009.5 mb 0.00 in0.0 mm 0.00 in0.0 mm 0.01 in0.3 mm
05:50 PM 41.7°F5.4°C 33.0°F0.6°C 71% 9.8 mph NE15.8 kmh NE 11.4 mph18.3 kmh 29.81 in1009.5 mb 0.00 in0.0 mm 0.00 in0.0 mm 0.01 in0.3 mm
05:52 PM 41.7°F5.4°C 33.0°F0.6°C 71% 9.8 mph NNE15.8 kmh NNE 10.7 mph17.2 kmh 29.82 in1009.8 mb 0.00 in0.0 mm 0.00 in0.0 mm 0.01 in0.3 mm
05:54 PM 41.7°F5.4°C 33.0°F0.6°C 71% 10.7 mph NE17.2 kmh NE 11.4 mph18.3 kmh 29.81 in1009.5 mb 0.00 in0.0 mm 0.00 in0.0 mm 0.01 in0.3 mm
05:56 PM 41.7°F5.4°C 33.0°F0.6°C 71% 8.3 mph NE13.4 kmh NE 9.2 mph14.8 kmh 29.82 in1009.8 mb 0.00 in0.0 mm 0.00 in0.0 mm 0.01 in0.3 mm
05:58 PM 41.5°F5.3°C 32.9°F0.5°C 71% 7.6 mph NNE12.2 kmh NNE 8.3 mph13.4 kmh 29.81 in1009.5 mb 0.00 in0.0 mm 0.00 in0.0 mm 0.01 in0.3 mm
06:00 PM 41.5°F5.3°C 32.9°F0.5°C 71% 7.6 mph NE12.2 kmh NE 8.3 mph13.4 kmh 29.81 in1009.5 mb 0.00 in0.0 mm 0.00 in0.0 mm 0.01 in0.3 mm
06:02 PM 41.5°F5.3°C 32.9°F0.5°C 71% 7.6 mph NE12.2 kmh NE 8.3 mph13.4 kmh 29.81 in1009.5 mb 0.00 in0.0 mm 0.00 in0.0 mm 0.01 in0.3 mm
06:04 PM 41.5°F5.3°C 32.9°F0.5°C 71% 7.6 mph NE12.2 kmh NE 8.3 mph13.4 kmh 29.81 in1009.5 mb 0.00 in0.0 mm 0.00 in0.0 mm 0.01 in0.3 mm
06:06 PM 41.5°F5.3°C 32.9°F0.5°C 71% 7.6 mph NE12.2 kmh NE 8.3 mph13.4 kmh 29.82 in1009.8 mb 0.00 in0.0 mm 0.00 in0.0 mm 0.01 in0.3 mm
06:08 PM 41.5°F5.3°C 32.9°F0.5°C 71% 7.6 mph NE12.2 kmh NE 8.3 mph13.4 kmh 29.82 in1009.8 mb 0.00 in0.0 mm 0.00 in0.0 mm 0.01 in0.3 mm
06:10 PM 41.0°F5.0°C 32.3°F0.2°C 71% 6.0 mph NE9.7 kmh NE 6.9 mph11.1 kmh 29.81 in1009.5 mb 0.00 in0.0 mm 0.00 in0.0 mm 0.01 in0.3 mm
06:12 PM 41.0°F5.0°C 32.3°F0.2°C 71% 5.4 mph NE8.7 kmh NE 6.0 mph9.7 kmh 29.82 in1009.8 mb 0.00 in0.0 mm 0.00 in0.0 mm 0.01 in0.3 mm
06:16 PM 40.8°F4.9°C 32.2°F0.1°C 71% 8.3 mph NNE13.4 kmh NNE 9.2 mph14.8 kmh 29.81 in1009.5 mb 0.00 in0.0 mm 0.00 in0.0 mm 0.01 in0.3 mm
06:18 PM 40.8°F4.9°C 32.5°F0.3°C 72% 6.0 mph NNE9.7 kmh NNE 6.9 mph11.1 kmh 29.82 in1009.8 mb 0.00 in0.0 mm 0.00 in0.0 mm 0.01 in0.3 mm
06:20 PM 40.8°F4.9°C 32.5°F0.3°C 72% 3.8 mph NE6.1 kmh NE 4.5 mph7.2 kmh 29.82 in1009.8 mb 0.00 in0.0 mm 0.00 in0.0 mm 0.01 in0.3 mm
06:22 PM 40.6°F4.8°C 32.3°F0.2°C 72% 2.2 mph NE3.5 kmh NE 3.1 mph5.0 kmh 29.82 in1009.8 mb 0.00 in0.0 mm 0.00 in0.0 mm 0.01 in0.3 mm
06:24 PM 40.6°F4.8°C 32.3°F0.2°C 72% 1.6 mph NNE2.6 kmh NNE 2.2 mph3.5 kmh 29.82 in1009.8 mb 0.00 in0.0 mm 0.00 in0.0 mm 0.01 in0.3 mm
06:26 PM 40.3°F4.6°C 32.0°F0.0°C 72% 0.7 mph 1.1 kmh 2.2 mph3.5 kmh 29.82 in1009.8 mb 0.00 in0.0 mm 0.00 in0.0 mm 0.01 in0.3 mm
06:28 PM 40.1°F4.5°C 31.5°F-0.3°C 71% 0.7 mph 1.1 kmh 1.6 mph2.6 kmh 29.82 in1009.8 mb 0.00 in0.0 mm 0.00 in0.0 mm 0.01 in0.3 mm
06:30 PM 39.7°F4.3°C 31.1°F-0.5°C 71% Calm Calm 0.7 mph1.1 kmh 29.82 in1009.8 mb 0.00 in0.0 mm 0.00 in0.0 mm 0.01 in0.3 mm
06:32 PM 39.4°F4.1°C 30.8°F-0.7°C 71% 0.7 mph 1.1 kmh 1.6 mph2.6 kmh 29.82 in1009.8 mb 0.00 in0.0 mm 0.00 in0.0 mm 0.01 in0.3 mm
06:34 PM 39.2°F4.0°C 30.6°F-0.8°C 71% 1.6 mph 2.6 kmh 2.2 mph3.5 kmh 29.82 in1009.8 mb 0.00 in0.0 mm 0.00 in0.0 mm 0.01 in0.3 mm
06:36 PM 39.0°F3.9°C 30.4°F-0.9°C 71% Calm Calm 0.7 mph1.1 kmh 29.82 in1009.8 mb 0.00 in0.0 mm 0.00 in0.0 mm 0.01 in0.3 mm
06:38 PM 38.7°F3.7°C 30.4°F-0.9°C 72% Calm Calm -- 29.82 in1009.8 mb 0.00 in0.0 mm 0.00 in0.0 mm 0.01 in0.3 mm
06:40 PM 38.5°F3.6°C 30.3°F-0.9°C 72% Calm Calm -- 29.82 in1009.8 mb 0.00 in0.0 mm 0.00 in0.0 mm 0.01 in0.3 mm
06:42 PM 38.3°F3.5°C 30.1°F-1.1°C 72% 2.2 mph 3.5 kmh 3.1 mph5.0 kmh 29.82 in1009.8 mb 0.00 in0.0 mm 0.00 in0.0 mm 0.01 in0.3 mm
06:45 PM 38.3°F3.5°C 30.1°F-1.1°C 72% 0.7 mph NE1.1 kmh NE 1.6 mph2.6 kmh 29.82 in1009.8 mb 0.00 in0.0 mm 0.00 in0.0 mm 0.01 in0.3 mm
06:47 PM 38.1°F3.4°C 29.9°F-1.2°C 72% 3.1 mph NNE5.0 kmh NNE 3.8 mph6.1 kmh 29.82 in1009.8 mb 0.00 in0.0 mm 0.00 in0.0 mm 0.01 in0.3 mm
06:49 PM 38.1°F3.4°C 30.2°F-1.0°C 73% 4.5 mph NE7.2 kmh NE 5.4 mph8.7 kmh 29.82 in1009.8 mb 0.00 in0.0 mm 0.00 in0.0 mm 0.01 in0.3 mm
06:51 PM 38.3°F3.5°C 30.4°F-0.9°C 73% 4.5 mph NE7.2 kmh NE 5.4 mph8.7 kmh 29.82 in1009.8 mb 0.00 in0.0 mm 0.00 in0.0 mm 0.01 in0.3 mm
06:53 PM 38.3°F3.5°C 30.4°F-0.9°C 73% 4.5 mph NE7.2 kmh NE 5.4 mph8.7 kmh 29.82 in1009.8 mb 0.00 in0.0 mm 0.00 in0.0 mm 0.01 in0.3 mm
06:55 PM 38.5°F3.6°C 30.9°F-0.6°C 74% 2.2 mph NE3.5 kmh NE 3.8 mph6.1 kmh 29.82 in1009.8 mb 0.00 in0.0 mm 0.00 in0.0 mm 0.01 in0.3 mm
06:57 PM 38.5°F3.6°C 30.9°F-0.6°C 74% 4.5 mph NE7.2 kmh NE 5.4 mph8.7 kmh 29.82 in1009.8 mb 0.00 in0.0 mm 0.00 in0.0 mm 0.01 in0.3 mm
06:59 PM 38.3°F3.5°C 30.8°F-0.7°C 74% 4.5 mph NNE7.2 kmh NNE 5.4 mph8.7 kmh 29.82 in1009.8 mb 0.00 in0.0 mm 0.00 in0.0 mm 0.01 in0.3 mm
07:01 PM 38.5°F3.6°C 30.9°F-0.6°C 74% 3.8 mph 6.1 kmh 4.5 mph7.2 kmh 29.82 in1009.8 mb 0.00 in0.0 mm 0.00 in0.0 mm 0.01 in0.3 mm
07:03 PM 38.7°F3.7°C 31.4°F-0.3°C 75% 5.4 mph 8.7 kmh 6.9 mph11.1 kmh 29.82 in1009.8 mb 0.00 in0.0 mm 0.00 in0.0 mm 0.01 in0.3 mm
07:05 PM 38.8°F3.8°C 31.6°F-0.2°C 75% 5.4 mph NE8.7 kmh NE 6.9 mph11.1 kmh 29.82 in1009.8 mb 0.00 in0.0 mm 0.00 in0.0 mm 0.01 in0.3 mm
07:07 PM 39.0°F3.9°C 31.8°F-0.1°C 75% 4.5 mph 7.2 kmh 5.4 mph8.7 kmh 29.82 in1009.8 mb 0.00 in0.0 mm 0.00 in0.0 mm 0.01 in0.3 mm
07:09 PM 39.2°F4.0°C 32.0°F0.0°C 75% 4.5 mph 7.2 kmh 6.0 mph9.7 kmh 29.82 in1009.8 mb 0.00 in0.0 mm 0.00 in0.0 mm 0.01 in0.3 mm
07:11 PM 39.2°F4.0°C 32.0°F0.0°C 75% 4.5 mph NNE7.2 kmh NNE 5.4 mph8.7 kmh 29.82 in1009.8 mb 0.00 in0.0 mm 0.00 in0.0 mm 0.01 in0.3 mm
07:13 PM 39.2°F4.0°C 31.6°F-0.2°C 74% 2.2 mph NE3.5 kmh NE 3.1 mph5.0 kmh 29.82 in1009.8 mb 0.00 in0.0 mm 0.00 in0.0 mm 0.01 in0.3 mm
07:15 PM 39.2°F4.0°C 31.6°F-0.2°C 74% 3.8 mph NE6.1 kmh NE 4.5 mph7.2 kmh 29.82 in1009.8 mb 0.00 in0.0 mm 0.00 in0.0 mm 0.01 in0.3 mm
07:17 PM 39.2°F4.0°C 31.6°F-0.2°C 74% 3.1 mph NE5.0 kmh NE 3.8 mph6.1 kmh 29.82 in1009.8 mb 0.00 in0.0 mm 0.00 in0.0 mm 0.01 in0.3 mm
07:19 PM 39.0°F3.9°C 31.1°F-0.5°C 73% 5.4 mph NE8.7 kmh NE 5.4 mph8.7 kmh 29.82 in1009.8 mb 0.00 in0.0 mm 0.00 in0.0 mm 0.01 in0.3 mm
07:21 PM 39.0°F3.9°C 31.1°F-0.5°C 73% 5.4 mph NE8.7 kmh NE 6.0 mph9.7 kmh 29.82 in1009.8 mb 0.00 in0.0 mm 0.00 in0.0 mm 0.01 in0.3 mm
07:23 PM 38.8°F3.8°C 30.9°F-0.6°C 73% 3.8 mph NE6.1 kmh NE 4.5 mph7.2 kmh 29.82 in1009.8 mb 0.00 in0.0 mm 0.00 in0.0 mm 0.01 in0.3 mm
07:25 PM 38.8°F3.8°C 30.9°F-0.6°C 73% 3.1 mph NE5.0 kmh NE 3.8 mph6.1 kmh 29.82 in1009.8 mb 0.00 in0.0 mm 0.00 in0.0 mm 0.01 in0.3 mm
07:27 PM 38.7°F3.7°C 30.8°F-0.7°C 73% 3.1 mph NE5.0 kmh NE 3.8 mph6.1 kmh 29.82 in1009.8 mb 0.00 in0.0 mm 0.00 in0.0 mm 0.01 in0.3 mm
07:29 PM 38.7°F3.7°C 30.8°F-0.7°C 73% 1.6 mph NE2.6 kmh NE 2.2 mph3.5 kmh 29.82 in1009.8 mb 0.00 in0.0 mm 0.00 in0.0 mm 0.01 in0.3 mm
07:31 PM 38.5°F3.6°C 30.6°F-0.8°C 73% 2.2 mph NNW3.5 kmh NNW 3.1 mph5.0 kmh 29.82 in1009.8 mb 0.00 in0.0 mm 0.00 in0.0 mm 0.01 in0.3 mm
07:33 PM 38.5°F3.6°C 30.6°F-0.8°C 73% 3.8 mph 6.1 kmh 5.4 mph8.7 kmh 29.82 in1009.8 mb 0.00 in0.0 mm 0.00 in0.0 mm 0.01 in0.3 mm
07:35 PM 38.7°F3.7°C 30.8°F-0.7°C 73% 0.7 mph NE1.1 kmh NE 2.2 mph3.5 kmh 29.82 in1009.8 mb 0.00 in0.0 mm 0.00 in0.0 mm 0.01 in0.3 mm
07:37 PM 38.7°F3.7°C 30.8°F-0.7°C 73% Calm Calm 0.7 mph1.1 kmh 29.82 in1009.8 mb 0.00 in0.0 mm 0.00 in0.0 mm 0.01 in0.3 mm
07:39 PM 38.5°F3.6°C 30.6°F-0.8°C 73% 1.6 mph 2.6 kmh 2.2 mph3.5 kmh 29.82 in1009.8 mb 0.00 in0.0 mm 0.00 in0.0 mm 0.01 in0.3 mm
07:41 PM 38.3°F3.5°C 30.4°F-0.9°C 73% 0.7 mph NNE1.1 kmh NNE 2.2 mph3.5 kmh 29.82 in1009.8 mb 0.00 in0.0 mm 0.00 in0.0 mm 0.01 in0.3 mm
07:45 PM 37.9°F3.3°C 30.1°F-1.1°C 73% Calm Calm -- 29.82 in1009.8 mb 0.00 in0.0 mm 0.00 in0.0 mm 0.01 in0.3 mm
07:47 PM 37.9°F3.3°C 30.1°F-1.1°C 73% Calm Calm 0.7 mph1.1 kmh 29.82 in1009.8 mb 0.00 in0.0 mm 0.00 in0.0 mm 0.01 in0.3 mm
07:50 PM 37.8°F3.2°C 29.9°F-1.2°C 73% 1.6 mph 2.6 kmh 2.2 mph3.5 kmh 29.82 in1009.8 mb 0.00 in0.0 mm 0.00 in0.0 mm 0.01 in0.3 mm
07:51 PM 37.8°F3.2°C 29.9°F-1.2°C 73% 0.7 mph 1.1 kmh 1.6 mph2.6 kmh 29.82 in1009.8 mb 0.00 in0.0 mm 0.00 in0.0 mm 0.01 in0.3 mm
07:53 PM 37.6°F3.1°C 29.7°F-1.3°C 73% 1.6 mph NW2.6 kmh NW 2.2 mph3.5 kmh 29.81 in1009.5 mb 0.00 in0.0 mm 0.00 in0.0 mm 0.01 in0.3 mm
07:55 PM 37.4°F3.0°C 29.6°F-1.3°C 73% 0.7 mph NW1.1 kmh NW 1.6 mph2.6 kmh 29.82 in1009.8 mb 0.00 in0.0 mm 0.00 in0.0 mm 0.01 in0.3 mm
07:57 PM 37.2°F2.9°C 29.4°F-1.4°C 73% Calm Calm 0.7 mph1.1 kmh 29.82 in1009.8 mb 0.00 in0.0 mm 0.00 in0.0 mm 0.01 in0.3 mm
07:59 PM 36.9°F2.7°C 29.0°F-1.7°C 73% 0.7 mph NW1.1 kmh NW 1.6 mph2.6 kmh 29.82 in1009.8 mb 0.00 in0.0 mm 0.00 in0.0 mm 0.01 in0.3 mm
08:01 PM 36.9°F2.7°C 29.0°F-1.7°C 73% 0.7 mph NW1.1 kmh NW 1.6 mph2.6 kmh 29.82 in1009.8 mb 0.00 in0.0 mm 0.00 in0.0 mm 0.01 in0.3 mm
08:03 PM 36.9°F2.7°C 29.0°F-1.7°C 73% 0.7 mph NW1.1 kmh NW 1.6 mph2.6 kmh 29.82 in1009.8 mb 0.00 in0.0 mm 0.00 in0.0 mm 0.01 in0.3 mm
08:05 PM 36.9°F2.7°C 29.0°F-1.7°C 73% 0.7 mph NW1.1 kmh NW 1.6 mph2.6 kmh 29.82 in1009.8 mb 0.00 in0.0 mm 0.00 in0.0 mm 0.01 in0.3 mm
08:07 PM 36.3°F2.4°C 28.5°F-1.9°C 73% Calm Calm -- 29.82 in1009.8 mb 0.00 in0.0 mm 0.00 in0.0 mm 0.01 in0.3 mm
08:09 PM 36.3°F2.4°C 28.5°F-1.9°C 73% Calm Calm -- 29.82 in1009.8 mb 0.00 in0.0 mm 0.00 in0.0 mm 0.01 in0.3 mm
08:11 PM 36.1°F2.3°C 28.7°F-1.8°C 74% Calm Calm 0.7 mph1.1 kmh 29.82 in1009.8 mb 0.00 in0.0 mm 0.00 in0.0 mm 0.01 in0.3 mm
08:13 PM 36.1°F2.3°C 28.7°F-1.8°C 74% Calm Calm -- 29.82 in1009.8 mb 0.00 in0.0 mm 0.00 in0.0 mm 0.01 in0.3 mm
08:15 PM 36.1°F2.3°C 28.7°F-1.8°C 74% Calm Calm -- 29.82 in1009.8 mb 0.00 in0.0 mm 0.00 in0.0 mm 0.01 in0.3 mm
08:17 PM 36.3°F2.4°C 29.2°F-1.6°C 75% Calm Calm -- 29.82 in1009.8 mb 0.00 in0.0 mm 0.00 in0.0 mm 0.01 in0.3 mm
08:19 PM 36.5°F2.5°C 29.3°F-1.5°C 75% 1.6 mph NW2.6 kmh NW 2.2 mph3.5 kmh 29.82 in1009.8 mb 0.00 in0.0 mm 0.00 in0.0 mm 0.01 in0.3 mm
08:21 PM 36.3°F2.4°C 29.2°F-1.6°C 75% 1.6 mph NW2.6 kmh NW 2.2 mph3.5 kmh 29.82 in1009.8 mb 0.00 in0.0 mm 0.00 in0.0 mm 0.01 in0.3 mm
08:23 PM 36.1°F2.3°C 29.0°F-1.7°C 75% 1.6 mph NW2.6 kmh NW 2.2 mph3.5 kmh 29.82 in1009.8 mb 0.00 in0.0 mm 0.00 in0.0 mm 0.01 in0.3 mm
08:25 PM 36.0°F2.2°C 28.8°F-1.8°C 75% 0.7 mph NW1.1 kmh NW 1.6 mph2.6 kmh 29.82 in1009.8 mb 0.00 in0.0 mm 0.00 in0.0 mm 0.01 in0.3 mm
08:27 PM 35.8°F2.1°C 28.7°F-1.8°C 75% 1.6 mph NW2.6 kmh NW 2.2 mph3.5 kmh 29.82 in1009.8 mb 0.00 in0.0 mm 0.00 in0.0 mm 0.01 in0.3 mm
08:29 PM 35.8°F2.1°C 28.7°F-1.8°C 75% 2.2 mph NW3.5 kmh NW 3.1 mph5.0 kmh 29.82 in1009.8 mb 0.00 in0.0 mm 0.00 in0.0 mm 0.01 in0.3 mm
08:31 PM 35.6°F2.0°C 28.5°F-1.9°C 75% 1.6 mph NW2.6 kmh NW 2.2 mph3.5 kmh 29.82 in1009.8 mb 0.00 in0.0 mm 0.00 in0.0 mm 0.01 in0.3 mm
08:33 PM 35.4°F1.9°C 28.3°F-2.1°C 75% 1.6 mph NW2.6 kmh NW 2.2 mph3.5 kmh 29.82 in1009.8 mb 0.00 in0.0 mm 0.00 in0.0 mm 0.01 in0.3 mm
08:35 PM 35.2°F1.8°C 28.1°F-2.2°C 75% 2.2 mph SW3.5 kmh SW 3.1 mph5.0 kmh 29.82 in1009.8 mb 0.00 in0.0 mm 0.00 in0.0 mm 0.01 in0.3 mm
08:37 PM 35.1°F1.7°C 28.0°F-2.2°C 75% 3.1 mph S5.0 kmh S 3.8 mph6.1 kmh 29.82 in1009.8 mb 0.00 in0.0 mm 0.00 in0.0 mm 0.01 in0.3 mm
08:39 PM 34.9°F1.6°C 27.8°F-2.3°C 75% 1.6 mph S2.6 kmh S 2.2 mph3.5 kmh 29.82 in1009.8 mb 0.00 in0.0 mm 0.00 in0.0 mm 0.01 in0.3 mm
08:41 PM 34.7°F1.5°C 27.6°F-2.4°C 75% 1.6 mph S2.6 kmh S 3.1 mph5.0 kmh 29.82 in1009.8 mb 0.00 in0.0 mm 0.00 in0.0 mm 0.01 in0.3 mm
08:43 PM 34.7°F1.5°C 27.9°F-2.3°C 76% 1.6 mph S2.6 kmh S 2.2 mph3.5 kmh 29.82 in1009.8 mb 0.00 in0.0 mm 0.00 in0.0 mm 0.01 in0.3 mm
08:45 PM 34.7°F1.5°C 27.9°F-2.3°C 76% 1.6 mph S2.6 kmh S 2.2 mph3.5 kmh 29.82 in1009.8 mb 0.00 in0.0 mm 0.00 in0.0 mm 0.01 in0.3 mm
08:47 PM 34.5°F1.4°C 27.8°F-2.3°C 76% 3.1 mph SE5.0 kmh SE 3.1 mph5.0 kmh 29.83 in1010.2 mb 0.00 in0.0 mm 0.00 in0.0 mm 0.01 in0.3 mm
08:49 PM 34.5°F1.4°C 27.8°F-2.3°C 76% 2.2 mph SE3.5 kmh SE 3.8 mph6.1 kmh 29.82 in1009.8 mb 0.00 in0.0 mm 0.00 in0.0 mm 0.01 in0.3 mm
08:51 PM 34.5°F1.4°C 28.1°F-2.2°C 77% 2.2 mph SE3.5 kmh SE 3.1 mph5.0 kmh 29.82 in1009.8 mb 0.00 in0.0 mm 0.00 in0.0 mm 0.01 in0.3 mm
08:53 PM 34.5°F1.4°C 28.1°F-2.2°C 77% 0.7 mph SE1.1 kmh SE 1.6 mph2.6 kmh 29.82 in1009.8 mb 0.00 in0.0 mm 0.00 in0.0 mm 0.01 in0.3 mm
08:55 PM 34.5°F1.4°C 28.4°F-2.0°C 78% 4.5 mph E7.2 kmh E 5.4 mph8.7 kmh 29.82 in1009.8 mb 0.00 in0.0 mm 0.00 in0.0 mm 0.01 in0.3 mm
08:57 PM 34.7°F1.5°C 28.6°F-1.9°C 78% 3.1 mph E5.0 kmh E 3.8 mph6.1 kmh 29.82 in1009.8 mb 0.00 in0.0 mm 0.00 in0.0 mm 0.01 in0.3 mm
08:59 PM 34.9°F1.6°C 29.0°F-1.7°C 79% 5.4 mph NE8.7 kmh NE 6.0 mph9.7 kmh 29.82 in1009.8 mb 0.00 in0.0 mm 0.00 in0.0 mm 0.01 in0.3 mm
09:01 PM 35.2°F1.8°C 29.4°F-1.4°C 79% 5.4 mph E8.7 kmh E 6.0 mph9.7 kmh 29.82 in1009.8 mb 0.00 in0.0 mm 0.00 in0.0 mm 0.01 in0.3 mm
09:03 PM 35.6°F2.0°C 30.1°F-1.1°C 80% 4.5 mph NE7.2 kmh NE 5.4 mph8.7 kmh 29.82 in1009.8 mb 0.00 in0.0 mm 0.00 in0.0 mm 0.01 in0.3 mm
09:05 PM 35.8°F2.1°C 30.2°F-1.0°C 80% 5.4 mph E8.7 kmh E 6.0 mph9.7 kmh 29.82 in1009.8 mb 0.00 in0.0 mm 0.00 in0.0 mm 0.01 in0.3 mm
09:07 PM 36.1°F2.3°C 30.6°F-0.8°C 80% 4.5 mph NE7.2 kmh NE 5.4 mph8.7 kmh 29.82 in1009.8 mb 0.00 in0.0 mm 0.00 in0.0 mm 0.01 in0.3 mm
09:09 PM 36.3°F2.4°C 30.8°F-0.7°C 80% 5.4 mph NE8.7 kmh NE 6.0 mph9.7 kmh 29.82 in1009.8 mb 0.00 in0.0 mm 0.00 in0.0 mm 0.01 in0.3 mm
09:11 PM 36.5°F2.5°C 30.9°F-0.6°C 80% 4.5 mph NE7.2 kmh NE 5.4 mph8.7 kmh 29.82 in1009.8 mb 0.00 in0.0 mm 0.00 in0.0 mm 0.01 in0.3 mm
09:13 PM 36.7°F2.6°C 31.1°F-0.5°C 80% 5.4 mph NE8.7 kmh NE 6.0 mph9.7 kmh 29.82 in1009.8 mb 0.00 in0.0 mm 0.00 in0.0 mm 0.01 in0.3 mm
09:15 PM 36.9°F2.7°C 31.6°F-0.2°C 81% 6.0 mph NE9.7 kmh NE 6.9 mph11.1 kmh 29.82 in1009.8 mb 0.00 in0.0 mm 0.00 in0.0 mm 0.01 in0.3 mm
09:17 PM 37.0°F2.8°C 31.8°F-0.1°C 81% 4.5 mph NE7.2 kmh NE 5.4 mph8.7 kmh 29.82 in1009.8 mb 0.00 in0.0 mm 0.00 in0.0 mm 0.01 in0.3 mm
09:19 PM 37.2°F2.9°C 31.9°F-0.1°C 81% 3.8 mph E6.1 kmh E 4.5 mph7.2 kmh 29.82 in1009.8 mb 0.00 in0.0 mm 0.00 in0.0 mm 0.01 in0.3 mm
09:21 PM 37.4°F3.0°C 32.1°F0.1°C 81% 3.8 mph E6.1 kmh E 4.5 mph7.2 kmh 29.82 in1009.8 mb 0.00 in0.0 mm 0.00 in0.0 mm 0.01 in0.3 mm
09:23 PM 37.4°F3.0°C 32.1°F0.1°C 81% 2.2 mph S3.5 kmh S 3.1 mph5.0 kmh 29.82 in1009.8 mb 0.00 in0.0 mm 0.00 in0.0 mm 0.01 in0.3 mm
09:25 PM 37.4°F3.0°C 32.1°F0.1°C 81% 2.2 mph S3.5 kmh S 3.1 mph5.0 kmh 29.82 in1009.8 mb 0.00 in0.0 mm 0.00 in0.0 mm 0.01 in0.3 mm
09:27 PM 37.0°F2.8°C 31.5°F-0.3°C 80% 1.6 mph S2.6 kmh S 2.2 mph3.5 kmh 29.83 in1010.2 mb 0.00 in0.0 mm 0.00 in0.0 mm 0.01 in0.3 mm
09:29 PM 36.9°F2.7°C 31.3°F-0.4°C 80% Calm Calm 0.7 mph1.1 kmh 29.82 in1009.8 mb 0.00 in0.0 mm 0.00 in0.0 mm 0.01 in0.3 mm
09:31 PM 36.5°F2.5°C 30.9°F-0.6°C 80% 2.2 mph S3.5 kmh S 3.1 mph5.0 kmh 29.82 in1009.8 mb 0.00 in0.0 mm 0.00 in0.0 mm 0.01 in0.3 mm
09:33 PM 36.3°F2.4°C 30.4°F-0.9°C 79% 1.6 mph S2.6 kmh S 2.2 mph3.5 kmh 29.82 in1009.8 mb 0.00 in0.0 mm 0.00 in0.0 mm 0.01 in0.3 mm
09:35 PM 36.0°F2.2°C 29.8°F-1.2°C 78% Calm Calm -- 29.82 in1009.8 mb 0.00 in0.0 mm 0.00 in0.0 mm 0.01 in0.3 mm
09:37 PM 35.8°F2.1°C 29.3°F-1.5°C 77% Calm Calm -- 29.82 in1009.8 mb 0.00 in0.0 mm 0.00 in0.0 mm 0.01 in0.3 mm
09:39 PM 35.4°F1.9°C 28.9°F-1.7°C 77% 2.2 mph S3.5 kmh S 3.1 mph5.0 kmh 29.82 in1009.8 mb 0.00 in0.0 mm 0.00 in0.0 mm 0.01 in0.3 mm
09:41 PM 35.2°F1.8°C 28.8°F-1.8°C 77% 0.7 mph S1.1 kmh S 1.6 mph2.6 kmh 29.82 in1009.8 mb 0.00 in0.0 mm 0.00 in0.0 mm 0.01 in0.3 mm
09:43 PM 35.1°F1.7°C 28.3°F-2.1°C 76% 1.6 mph S2.6 kmh S 1.6 mph2.6 kmh 29.82 in1009.8 mb 0.00 in0.0 mm 0.00 in0.0 mm 0.01 in0.3 mm
09:45 PM 34.9°F1.6°C 28.1°F-2.2°C 76% 1.6 mph S2.6 kmh S 1.6 mph2.6 kmh 29.82 in1009.8 mb 0.00 in0.0 mm 0.00 in0.0 mm 0.01 in0.3 mm
09:47 PM 34.7°F1.5°C 27.9°F-2.3°C 76% 0.7 mph S1.1 kmh S 1.6 mph2.6 kmh 29.82 in1009.8 mb 0.00 in0.0 mm 0.00 in0.0 mm 0.01 in0.3 mm
09:51 PM 34.3°F1.3°C 27.6°F-2.4°C 76% 0.7 mph S1.1 kmh S 1.6 mph2.6 kmh 29.82 in1009.8 mb 0.00 in0.0 mm 0.00 in0.0 mm 0.01 in0.3 mm
09:53 PM 34.3°F1.3°C 27.9°F-2.3°C 77% 0.7 mph S1.1 kmh S 1.6 mph2.6 kmh 29.82 in1009.8 mb 0.00 in0.0 mm 0.00 in0.0 mm 0.01 in0.3 mm
09:55 PM 34.3°F1.3°C 27.9°F-2.3°C 77% 0.7 mph S1.1 kmh S 1.6 mph2.6 kmh 29.82 in1009.8 mb 0.00 in0.0 mm 0.00 in0.0 mm 0.01 in0.3 mm
09:57 PM 34.3°F1.3°C 27.9°F-2.3°C 77% 0.7 mph S1.1 kmh S 1.6 mph2.6 kmh 29.82 in1009.8 mb 0.00 in0.0 mm 0.00 in0.0 mm 0.01 in0.3 mm
09:59 PM 34.3°F1.3°C 28.2°F-2.1°C 78% 0.7 mph S1.1 kmh S 0.7 mph1.1 kmh 29.81 in1009.5 mb 0.00 in0.0 mm 0.00 in0.0 mm 0.01 in0.3 mm
10:01 PM 34.5°F1.4°C 28.7°F-1.8°C 79% 0.7 mph S1.1 kmh S 1.6 mph2.6 kmh 29.82 in1009.8 mb 0.00 in0.0 mm 0.00 in0.0 mm 0.01 in0.3 mm
10:06 PM 34.3°F1.3°C 28.8°F-1.8°C 80% 0.7 mph S1.1 kmh S 1.6 mph2.6 kmh 29.82 in1009.8 mb 0.00 in0.0 mm 0.00 in0.0 mm 0.01 in0.3 mm
10:07 PM 34.2°F1.2°C 28.7°F-1.8°C 80% Calm Calm -- 29.82 in1009.8 mb 0.00 in0.0 mm 0.00 in0.0 mm 0.01 in0.3 mm
10:09 PM 34.2°F1.2°C 28.7°F-1.8°C 80% 1.6 mph S2.6 kmh S 2.2 mph3.5 kmh 29.82 in1009.8 mb 0.00 in0.0 mm 0.00 in0.0 mm 0.01 in0.3 mm
10:11 PM 34.0°F1.1°C 28.5°F-1.9°C 80% 2.2 mph S3.5 kmh S 3.1 mph5.0 kmh 29.82 in1009.8 mb 0.00 in0.0 mm 0.00 in0.0 mm 0.01 in0.3 mm
10:13 PM 33.8°F1.0°C 28.3°F-2.1°C 80% 2.2 mph S3.5 kmh S 3.1 mph5.0 kmh 29.82 in1009.8 mb 0.00 in0.0 mm 0.00 in0.0 mm 0.01 in0.3 mm
10:15 PM 33.6°F0.9°C 28.1°F-2.2°C 80% 1.6 mph S2.6 kmh S 3.1 mph5.0 kmh 29.82 in1009.8 mb 0.00 in0.0 mm 0.00 in0.0 mm 0.01 in0.3 mm
10:18 PM 33.4°F0.8°C 28.0°F-2.2°C 80% 2.2 mph S3.5 kmh S 3.1 mph5.0 kmh 29.82 in1009.8 mb 0.00 in0.0 mm 0.00 in0.0 mm 0.01 in0.3 mm
10:20 PM 33.3°F0.7°C 27.8°F-2.3°C 80% 1.6 mph S2.6 kmh S 2.2 mph3.5 kmh 29.82 in1009.8 mb 0.00 in0.0 mm 0.00 in0.0 mm 0.01 in0.3 mm
10:22 PM 33.1°F0.6°C 27.6°F-2.4°C 80% 1.6 mph S2.6 kmh S 2.2 mph3.5 kmh 29.82 in1009.8 mb 0.00 in0.0 mm 0.00 in0.0 mm 0.01 in0.3 mm
10:24 PM 32.9°F0.5°C 27.4°F-2.6°C 80% 1.6 mph S2.6 kmh S 2.2 mph3.5 kmh 29.82 in1009.8 mb 0.00 in0.0 mm 0.00 in0.0 mm 0.01 in0.3 mm
10:26 PM 32.9°F0.5°C 27.4°F-2.6°C 80% 1.6 mph S2.6 kmh S 2.2 mph3.5 kmh 29.82 in1009.8 mb 0.00 in0.0 mm 0.00 in0.0 mm 0.01 in0.3 mm
10:28 PM 32.7°F0.4°C 27.2°F-2.7°C 80% 0.7 mph S1.1 kmh S 1.6 mph2.6 kmh 29.81 in1009.5 mb 0.00 in0.0 mm 0.00 in0.0 mm 0.01 in0.3 mm
10:30 PM 32.7°F0.4°C 27.2°F-2.7°C 80% 0.7 mph S1.1 kmh S 1.6 mph2.6 kmh 29.82 in1009.8 mb 0.00 in0.0 mm 0.00 in0.0 mm 0.01 in0.3 mm
10:32 PM 32.7°F0.4°C 27.2°F-2.7°C 80% 0.7 mph S1.1 kmh S 1.6 mph2.6 kmh 29.81 in1009.5 mb 0.00 in0.0 mm 0.00 in0.0 mm 0.01 in0.3 mm
10:34 PM 32.7°F0.4°C 27.2°F-2.7°C 80% 1.6 mph S2.6 kmh S 2.2 mph3.5 kmh 29.82 in1009.8 mb 0.00 in0.0 mm 0.00 in0.0 mm 0.01 in0.3 mm
10:36 PM 32.7°F0.4°C 27.2°F-2.7°C 80% 1.6 mph S2.6 kmh S 2.2 mph3.5 kmh 29.81 in1009.5 mb 0.00 in0.0 mm 0.00 in0.0 mm 0.01 in0.3 mm
10:38 PM 32.7°F0.4°C 27.2°F-2.7°C 80% 1.6 mph S2.6 kmh S 2.2 mph3.5 kmh 29.82 in1009.8 mb 0.00 in0.0 mm 0.00 in0.0 mm 0.01 in0.3 mm
10:40 PM 32.5°F0.3°C 27.1°F-2.7°C 80% 1.6 mph S2.6 kmh S 2.2 mph3.5 kmh 29.81 in1009.5 mb 0.00 in0.0 mm 0.00 in0.0 mm 0.01 in0.3 mm
10:42 PM 32.4°F0.2°C 26.9°F-2.8°C 80% 1.6 mph S2.6 kmh S 2.2 mph3.5 kmh 29.81 in1009.5 mb 0.00 in0.0 mm 0.00 in0.0 mm 0.01 in0.3 mm
10:44 PM 32.2°F0.1°C 26.7°F-2.9°C 80% 1.6 mph S2.6 kmh S 2.2 mph3.5 kmh 29.81 in1009.5 mb 0.00 in0.0 mm 0.00 in0.0 mm 0.01 in0.3 mm
10:46 PM 32.2°F0.1°C 26.7°F-2.9°C 80% 1.6 mph S2.6 kmh S 2.2 mph3.5 kmh 29.81 in1009.5 mb 0.00 in0.0 mm 0.00 in0.0 mm 0.01 in0.3 mm
10:48 PM 32.2°F0.1°C 26.7°F-2.9°C 80% 0.7 mph S1.1 kmh S 1.6 mph2.6 kmh 29.81 in1009.5 mb 0.00 in0.0 mm 0.00 in0.0 mm 0.01 in0.3 mm
10:50 PM 32.2°F0.1°C 26.7°F-2.9°C 80% 0.7 mph S1.1 kmh S 1.6 mph2.6 kmh 29.81 in1009.5 mb 0.00 in0.0 mm 0.00 in0.0 mm 0.01 in0.3 mm
10:52 PM 32.2°F0.1°C 26.7°F-2.9°C 80% 0.7 mph S1.1 kmh S 1.6 mph2.6 kmh 29.81 in1009.5 mb 0.00 in0.0 mm 0.00 in0.0 mm 0.01 in0.3 mm
10:54 PM 32.4°F0.2°C 26.9°F-2.8°C 80% 0.7 mph S1.1 kmh S 1.6 mph2.6 kmh 29.81 in1009.5 mb 0.00 in0.0 mm 0.00 in0.0 mm 0.01 in0.3 mm
10:56 PM 32.4°F0.2°C 26.9°F-2.8°C 80% 0.7 mph S1.1 kmh S 1.6 mph2.6 kmh 29.82 in1009.8 mb 0.00 in0.0 mm 0.00 in0.0 mm 0.01 in0.3 mm
10:58 PM 32.2°F0.1°C 27.0°F-2.8°C 81% 1.6 mph S2.6 kmh S 2.2 mph3.5 kmh 29.81 in1009.5 mb 0.00 in0.0 mm 0.00 in0.0 mm 0.01 in0.3 mm
11:00 PM 32.2°F0.1°C 27.0°F-2.8°C 81% 0.7 mph S1.1 kmh S 0.7 mph1.1 kmh 29.81 in1009.5 mb 0.00 in0.0 mm 0.00 in0.0 mm 0.01 in0.3 mm
11:02 PM 32.2°F0.1°C 27.0°F-2.8°C 81% Calm Calm -- 29.81 in1009.5 mb 0.00 in0.0 mm 0.00 in0.0 mm 0.01 in0.3 mm
11:04 PM 32.2°F0.1°C 27.0°F-2.8°C 81% Calm Calm -- 29.82 in1009.8 mb 0.00 in0.0 mm 0.00 in0.0 mm 0.01 in0.3 mm
11:06 PM 32.0°F0.0°C 26.8°F-2.9°C 81% Calm Calm -- 29.81 in1009.5 mb 0.00 in0.0 mm 0.00 in0.0 mm 0.01 in0.3 mm
11:08 PM 31.8°F-0.1°C 26.7°F-2.9°C 81% Calm Calm -- 29.81 in1009.5 mb 0.00 in0.0 mm 0.00 in0.0 mm 0.01 in0.3 mm
11:10 PM 31.6°F-0.2°C 26.5°F-3.1°C 81% Calm Calm -- 29.82 in1009.8 mb 0.00 in0.0 mm 0.00 in0.0 mm 0.01 in0.3 mm
11:12 PM 31.6°F-0.2°C 26.5°F-3.1°C 81% Calm Calm -- 29.81 in1009.5 mb 0.00 in0.0 mm 0.00 in0.0 mm 0.01 in0.3 mm
11:14 PM 31.5°F-0.3°C 26.3°F-3.2°C 81% Calm Calm -- 29.81 in1009.5 mb 0.00 in0.0 mm 0.00 in0.0 mm 0.01 in0.3 mm
11:16 PM 31.5°F-0.3°C 26.3°F-3.2°C 81% Calm Calm -- 29.81 in1009.5 mb 0.00 in0.0 mm 0.00 in0.0 mm 0.01 in0.3 mm
11:18 PM 31.3°F-0.4°C 26.1°F-3.3°C 81% 0.7 mph S1.1 kmh S 0.7 mph1.1 kmh 29.80 in1009.1 mb 0.00 in0.0 mm 0.00 in0.0 mm 0.01 in0.3 mm
11:20 PM 31.5°F-0.3°C 26.3°F-3.2°C 81% Calm Calm 0.7 mph1.1 kmh 29.81 in1009.5 mb 0.00 in0.0 mm 0.00 in0.0 mm 0.01 in0.3 mm
11:22 PM 31.3°F-0.4°C 26.1°F-3.3°C 81% Calm Calm -- 29.81 in1009.5 mb 0.00 in0.0 mm 0.00 in0.0 mm 0.01 in0.3 mm
11:24 PM 31.3°F-0.4°C 26.1°F-3.3°C 81% Calm Calm -- 29.81 in1009.5 mb 0.00 in0.0 mm 0.00 in0.0 mm 0.01 in0.3 mm
11:26 PM 31.3°F-0.4°C 26.1°F-3.3°C 81% Calm Calm -- 29.81 in1009.5 mb 0.00 in0.0 mm 0.00 in0.0 mm 0.01 in0.3 mm
11:28 PM 31.3°F-0.4°C 26.1°F-3.3°C 81% Calm Calm -- 29.80 in1009.1 mb 0.00 in0.0 mm 0.00 in0.0 mm 0.01 in0.3 mm
11:30 PM 31.1°F-0.5°C 26.0°F-3.3°C 81% Calm Calm -- 29.81 in1009.5 mb 0.00 in0.0 mm 0.00 in0.0 mm 0.01 in0.3 mm
11:32 PM 31.1°F-0.5°C 26.0°F-3.3°C 81% Calm Calm -- 29.81 in1009.5 mb 0.00 in0.0 mm 0.00 in0.0 mm 0.01 in0.3 mm
11:34 PM 31.1°F-0.5°C 26.0°F-3.3°C 81% Calm Calm -- 29.81 in1009.5 mb 0.00 in0.0 mm 0.00 in0.0 mm 0.01 in0.3 mm
11:36 PM 31.1°F-0.5°C 26.0°F-3.3°C 81% Calm Calm -- 29.80 in1009.1 mb 0.00 in0.0 mm 0.00 in0.0 mm 0.01 in0.3 mm
11:38 PM 31.1°F-0.5°C 26.0°F-3.3°C 81% Calm Calm -- 29.80 in1009.1 mb 0.00 in0.0 mm 0.00 in0.0 mm 0.01 in0.3 mm
11:40 PM 30.7°F-0.7°C 25.6°F-3.6°C 81% Calm Calm -- 29.80 in1009.1 mb 0.00 in0.0 mm 0.00 in0.0 mm 0.01 in0.3 mm
11:42 PM 30.6°F-0.8°C 25.4°F-3.7°C 81% Calm Calm -- 29.81 in1009.5 mb 0.00 in0.0 mm 0.00 in0.0 mm 0.01 in0.3 mm
11:44 PM 30.4°F-0.9°C 25.3°F-3.7°C 81% Calm Calm -- 29.80 in1009.1 mb 0.00 in0.0 mm 0.00 in0.0 mm 0.01 in0.3 mm
11:46 PM 30.2°F-1.0°C 25.1°F-3.8°C 81% Calm Calm -- 29.80 in1009.1 mb 0.00 in0.0 mm 0.00 in0.0 mm 0.01 in0.3 mm
11:48 PM 30.2°F-1.0°C 25.1°F-3.8°C 81% Calm Calm -- 29.80 in1009.1 mb 0.00 in0.0 mm 0.00 in0.0 mm 0.01 in0.3 mm
11:50 PM 30.0°F-1.1°C 24.9°F-3.9°C 81% Calm Calm -- 29.80 in1009.1 mb 0.00 in0.0 mm 0.00 in0.0 mm 0.01 in0.3 mm
11:52 PM 30.0°F-1.1°C 24.9°F-3.9°C 81% Calm Calm -- 29.80 in1009.1 mb 0.00 in0.0 mm 0.00 in0.0 mm 0.01 in0.3 mm
11:54 PM 30.0°F-1.1°C 24.9°F-3.9°C 81% Calm Calm -- 29.80 in1009.1 mb 0.00 in0.0 mm 0.00 in0.0 mm 0.01 in0.3 mm
11:56 PM 30.2°F-1.0°C 25.1°F-3.8°C 81% Calm Calm 0.7 mph1.1 kmh 29.80 in1009.1 mb 0.00 in0.0 mm 0.00 in0.0 mm 0.01 in0.3 mm
11:58 PM 30.4°F-0.9°C 25.3°F-3.7°C 81% Calm Calm 0.7 mph1.1 kmh 29.80 in1009.1 mb 0.00 in0.0 mm 0.00 in0.0 mm 0.01 in0.3 mm